PORTS® Data Listing: 8770613 Morgans Point, Barbours Cut, TX

CO-OPS RAW PORTS DATA

************************      PRELIMINARY DATA      ************************** 

     THIS RAW DATA HAS NOT BEEN SUBJECT TO THE NATIONAL OCEAN SERVICE'S        
     QUALITY CONTROL OR QUALITY ASSURANCE PROCEDURES AND DOES NOT MEET         
     THE CRITERIA AND STANDARDS OF OFFICIAL NATIONAL OCEAN SERVICE             
     DATA.  IT IS RELEASED FOR LIMITED PUBLIC USE AS PRELIMINARY DATA TO       
     BE USED ONLY WITH APPROPRIATE CAUTION.                                    

************************      PRELIMINARY DATA      ************************** 


       CD   -   Calendar date
       T    -   Time
       TZ   -   Timezone
       PW   -   Predicted water level (feet above MLLW)
       OW   -   Observed water level (feet above MLLW)
       WS   -   Wind speed (knots)
       WD   -   Wind direction (degrees true)
       WG   -   Wind gust (knots)
       AT   -   Air temperature (degrees farenheit)
       WT   -   Water temperature (degrees farenheit)
       AP   -   Air pressure (millibars)
       SA   -   Salinty (PSU - Practical Salinity Units)
       SG   -   Specific gravity
       RH   -   Relative humidity
       AG   -   Air gap (feet)
       VI   -   Visibility (nautical miles)

       ** NOTE **
       A variable that has its data fields filled with "9"s, indicates that
       data was not collected for that sample period.
       **********


STATION NAME: Morgans Point (8770613)
****************************************************************************************************
    CD       T    TZ    PW     OW    WS   WD   WG    AT    WT    AP    SA    SG     RH    AG   VI
****************************************************************************************************
2020/01/15 22:24 CST    0.09   0.97    7  130    8  65.5  64.0 1021.9 12.4  1.009 -99.9 -99.99 -9.99
2020/01/15 22:30 CST    0.11   0.99    6  135    8  65.5  64.0 1021.9 12.4  1.009 -99.9 -99.99 -9.99
2020/01/15 22:36 CST    0.13   1.01    5  130    6  65.5  64.0 1022.0 12.4  1.009 -99.9 -99.99 -9.99
2020/01/15 22:42 CST    0.15   1.03    5  132    7  65.5  64.0 1022.0 12.4  1.009 -99.9 -99.99 -9.99
2020/01/15 22:48 CST    0.17   1.05    5  144    7  65.7  64.0 1021.9 12.4  1.009 -99.9 -99.99 -9.99
2020/01/15 22:54 CST    0.18   1.08    6  139    9  65.7  64.0 1022.0 12.4  1.009 -99.9 -99.99 -9.99
2020/01/15 23:00 CST    0.20   1.09    7  141    8  65.7  64.0 1022.0 12.4  1.009 -99.9 -99.99 -9.99
2020/01/15 23:06 CST    0.22   1.11    6  134    9  65.8  64.0 1021.9 12.4  1.009 -99.9 -99.99 -9.99
2020/01/15 23:12 CST    0.24   1.14    8  134    9  65.8  64.0 1021.9 12.5  1.009 -99.9 -99.99 -9.99
2020/01/15 23:18 CST    0.26   1.16    8  132   10  65.8  64.0 1021.9 12.6  1.009 -99.9 -99.99 -9.99
2020/01/15 23:24 CST    0.27   1.17    9  119   11  65.8  64.0 1021.6 12.7  1.009 -99.9 -99.99 -9.99
2020/01/15 23:30 CST    0.29   1.19    7  127   12  65.7  64.0 1021.9 12.7  1.009 -99.9 -99.99 -9.99
2020/01/15 23:36 CST    0.30   1.20    7  128    9  65.7  64.0 1021.8 12.7  1.009 -99.9 -99.99 -9.99
2020/01/15 23:42 CST    0.31   1.23    7  130    9  65.7  64.0 1021.9 12.7  1.009 -99.9 -99.99 -9.99
2020/01/15 23:48 CST    0.33   1.24    6  124    8  65.7  64.0 1022.1 12.8  1.009 -99.9 -99.99 -9.99
2020/01/15 23:54 CST    0.34   1.26    3  139    6  65.7  64.0 1022.2 12.8  1.009 -99.9 -99.99 -9.99
2020/01/16 00:00 CST    0.35   1.26    3  158    5  65.7  64.0 1021.9 12.9  1.009 -99.9 -99.99 -9.99
2020/01/16 00:06 CST    0.36   1.28    2  199    4  65.5  64.0 1021.9 12.9  1.009 -99.9 -99.99 -9.99
2020/01/16 00:12 CST    0.37   1.29    3  172    4  65.3  64.0 1022.0 13.0  1.009 -99.9 -99.99 -9.99
2020/01/16 00:18 CST    0.38   1.30    3  140    4  65.5  64.0 1022.0 13.1  1.010 -99.9 -99.99 -9.99
2020/01/16 00:24 CST    0.39   1.30    2  163    3  65.5  64.0 1022.1 13.1  1.010 -99.9 -99.99 -9.99
2020/01/16 00:30 CST    0.40   1.31    3  160    5  65.1  64.0 1022.0 13.2  1.010 -99.9 -99.99 -9.99
2020/01/16 00:36 CST    0.41   1.31    4  164    6  65.1  64.0 1022.1 13.2  1.010 -99.9 -99.99 -9.99
2020/01/16 00:42 CST    0.42   1.31    3  168    4  64.9  64.0 1022.1 13.2  1.010 -99.9 -99.99 -9.99
2020/01/16 00:48 CST    0.43   1.32    3  149    4  65.1  64.0 1022.1 13.3  1.010 -99.9 -99.99 -9.99
2020/01/16 00:54 CST    0.43   1.32    2  160    4  65.1  64.0 1022.0 13.3  1.010 -99.9 -99.99 -9.99
2020/01/16 01:00 CST    0.44   1.34    4  138    4  65.1  64.2 1021.8 13.1  1.010 -99.9 -99.99 -9.99
2020/01/16 01:06 CST    0.44   1.34    4  137    6  65.1  64.2 1022.0 13.2  1.010 -99.9 -99.99 -9.99
2020/01/16 01:12 CST    0.45   1.33    3  142    5  65.1  64.2 1022.0 13.2  1.010 -99.9 -99.99 -9.99
2020/01/16 01:18 CST    0.45   1.34    3  143    4  65.1  64.2 1021.9 13.2  1.010 -99.9 -99.99 -9.99
2020/01/16 01:24 CST    0.46   1.35    4  145    5  65.3  64.2 1022.0 13.3  1.010 -99.9 -99.99 -9.99
2020/01/16 01:30 CST    0.46   1.35    4  134    5  65.3  64.2 1022.0 13.3  1.010 -99.9 -99.99 -9.99
2020/01/16 01:36 CST    0.46   1.35    4  125    6  65.3  64.2 1022.0 13.2  1.010 -99.9 -99.99 -9.99
2020/01/16 01:42 CST    0.46   1.35    4  141    7  65.5  64.2 1022.1 13.2  1.010 -99.9 -99.99 -9.99
2020/01/16 01:48 CST    0.47   1.34    4  143    6  65.3  64.2 1022.0 13.2  1.010 -99.9 -99.99 -9.99
2020/01/16 01:54 CST    0.47   1.34    2  155    4  65.3  64.4 1022.1 13.2  1.010 -99.9 -99.99 -9.99
2020/01/16 02:00 CST    0.47   1.33    2  141    3  65.3  64.4 1022.2 13.1  1.010 -99.9 -99.99 -9.99
2020/01/16 02:06 CST    0.47   1.33    3  131    4  65.3  64.4 1022.1 13.1  1.009 -99.9 -99.99 -9.99
2020/01/16 02:12 CST    0.46   1.32    4  129    5  65.1  64.4 1022.1 13.1  1.009 -99.9 -99.99 -9.99
2020/01/16 02:18 CST    0.46   1.31    4  126    4  65.1  64.4 1022.1 13.1  1.009 -99.9 -99.99 -9.99
2020/01/16 02:24 CST    0.46   1.31    3  131    4  65.1  64.6 1022.2 13.1  1.009 -99.9 -99.99 -9.99
2020/01/16 02:30 CST    0.46   1.30    3  131    4  65.1  64.6 1022.2 13.1  1.009 -99.9 -99.99 -9.99
2020/01/16 02:36 CST    0.45   1.30    2  114    3  65.3  64.6 1022.1 13.1  1.009 -99.9 -99.99 -9.99
2020/01/16 02:42 CST    0.45   1.29    2  127    4  65.3  64.6 1022.2 13.2  1.009 -99.9 -99.99 -9.99
2020/01/16 02:48 CST    0.44   1.27    3  130    4  65.5  64.6 1022.2 13.2  1.010 -99.9 -99.99 -9.99
2020/01/16 02:54 CST    0.44   1.27    3  136    4  65.5  64.6 1022.2 13.1  1.009 -99.9 -99.99 -9.99
2020/01/16 03:00 CST    0.43   1.26    3  114    4  65.3  64.6 1022.2 13.0  1.009 -99.9 -99.99 -9.99
2020/01/16 03:06 CST    0.42   1.26    2  106    3  65.5  64.8 1022.2 12.9  1.009 -99.9 -99.99 -9.99
2020/01/16 03:12 CST    0.41   1.25    2  104    2  65.5  64.8 1022.3 12.8  1.009 -99.9 -99.99 -9.99
2020/01/16 03:18 CST    0.41   1.24    2   99    2  65.7  64.8 1022.3 12.8  1.009 -99.9 -99.99 -9.99
2020/01/16 03:24 CST    0.40   1.22    1   80    2  65.7  64.8 1022.4 12.8  1.009 -99.9 -99.99 -9.99
2020/01/16 03:30 CST    0.39   1.22    1   98    2  65.8  64.6 1022.5 12.8  1.009 -99.9 -99.99 -9.99
2020/01/16 03:36 CST    0.38   1.20    3   97    4  65.8  64.6 1022.5 12.8  1.009 -99.9 -99.99 -9.99
2020/01/16 03:42 CST    0.37   1.19    4   93    4  65.7  64.6 1022.5 12.8  1.009 -99.9 -99.99 -9.99
2020/01/16 03:48 CST    0.36   1.18    4   97    5  65.7  64.6 1022.6 12.7  1.009 -99.9 -99.99 -9.99
2020/01/16 03:54 CST    0.35   1.18    4   88    5  65.7  64.6 1022.7 12.7  1.009 -99.9 -99.99 -9.99
2020/01/16 04:00 CST    0.34   1.17    3  103    4  65.7  64.6 1022.8 12.7  1.009 -99.9 -99.99 -9.99
2020/01/16 04:06 CST    0.33   1.15    4  101    4  65.7  64.8 1022.8 12.6  1.009 -99.9 -99.99 -9.99
2020/01/16 04:12 CST    0.32   1.13    4   93    4  65.7  64.8 1022.9 12.6  1.009 -99.9 -99.99 -9.99
2020/01/16 04:18 CST    0.31   1.11    3   84    4  65.8  64.8 1022.9 12.6  1.009 -99.9 -99.99 -9.99
2020/01/16 04:24 CST    0.30   1.10    3   78    4  65.7  64.8 1023.0 12.6  1.009 -99.9 -99.99 -9.99
2020/01/16 04:30 CST    0.29   1.09    4   78    4  65.7  64.8 1023.0 12.6  1.009 -99.9 -99.99 -9.99
2020/01/16 04:36 CST    0.28   1.07    4   83    4  65.7  64.8 1023.1 12.6  1.009 -99.9 -99.99 -9.99
2020/01/16 04:42 CST    0.27   1.06    4   89    4  65.7  64.8 1023.2 12.6  1.009 -99.9 -99.99 -9.99
2020/01/16 04:48 CST    0.26   1.05    4   93    5  65.8  64.8 1023.1 12.6  1.009 -99.9 -99.99 -9.99
2020/01/16 04:54 CST    0.25   1.03    5  105    5  65.8  64.8 1023.1 12.6  1.009 -99.9 -99.99 -9.99
2020/01/16 05:00 CST    0.24   1.01    4  101    5  65.8  64.8 1023.2 12.6  1.009 -99.9 -99.99 -9.99
2020/01/16 05:06 CST    0.23   1.00    4  105    5  65.8  64.8 1023.3 12.6  1.009 -99.9 -99.99 -9.99
2020/01/16 05:12 CST    0.22   0.99    4  105    4  65.8  64.8 1023.4 12.6  1.009 -99.9 -99.99 -9.99
2020/01/16 05:18 CST    0.21   0.98    3   98    4  65.8  64.8 1023.4 12.6  1.009 -99.9 -99.99 -9.99
2020/01/16 05:24 CST    0.20   0.97    3   97    4  65.8  64.8 1023.5 12.6  1.009 -99.9 -99.99 -9.99
2020/01/16 05:30 CST    0.19   0.95    3   95    4  65.8  64.8 1023.6 12.6  1.009 -99.9 -99.99 -9.99
2020/01/16 05:36 CST    0.18   0.94    3   84    4  65.8  64.8 1023.7 12.6  1.009 -99.9 -99.99 -9.99
2020/01/16 05:42 CST    0.17   0.92    3   84    3  65.8  64.8 1023.8 12.6  1.009 -99.9 -99.99 -9.99
2020/01/16 05:48 CST    0.16   0.91    2   74    3  65.7  64.8 1023.8 12.6  1.009 -99.9 -99.99 -9.99
2020/01/16 05:54 CST    0.15   0.90    3   67    3  65.8  64.8 1023.9 12.6  1.009 -99.9 -99.99 -9.99
2020/01/16 06:00 CST    0.14   0.89    3   55    3  65.8  64.8 1023.9 12.6  1.009 -99.9 -99.99 -9.99
2020/01/16 06:06 CST    0.12   0.88    3   55    3  65.7  64.8 1024.0 12.6  1.009 -99.9 -99.99 -9.99
2020/01/16 06:12 CST    0.11   0.87    3   50    3  65.7  64.8 1024.1 12.6  1.009 -99.9 -99.99 -9.99
2020/01/16 06:18 CST    0.11   0.86    3   64    3  65.8  64.8 1024.1 12.6  1.009 -99.9 -99.99 -9.99
2020/01/16 06:24 CST    0.10   0.85    3   59    3  66.0  64.8 1024.2 12.6  1.009 -99.9 -99.99 -9.99
2020/01/16 06:30 CST    0.09   0.84    3   63    3  66.0  64.8 1024.2 12.6  1.009 -99.9 -99.99 -9.99
2020/01/16 06:36 CST    0.08   0.83    3   67    3  66.0  64.8 1024.2 12.6  1.009 -99.9 -99.99 -9.99
2020/01/16 06:42 CST    0.07   0.82    2   66    3  66.0  64.8 1024.2 12.6  1.009 -99.9 -99.99 -9.99
2020/01/16 06:48 CST    0.06   0.81    3   60    3  66.0  64.8 1024.3 12.6  1.009 -99.9 -99.99 -9.99
2020/01/16 06:54 CST    0.06   0.81    3   56    3  65.8  64.8 1024.4 12.6  1.009 -99.9 -99.99 -9.99
2020/01/16 07:00 CST    0.05   0.80    3   48    3  66.0  64.6 1024.4 12.6  1.009 -99.9 -99.99 -9.99
2020/01/16 07:06 CST    0.04   0.79    2   60    3  65.8  64.6 1024.4 12.5  1.009 -99.9 -99.99 -9.99
2020/01/16 07:12 CST    0.04   0.78    2   46    2  65.5  64.6 1024.4 12.5  1.009 -99.9 -99.99 -9.99
2020/01/16 07:18 CST    0.04   0.78    3   73    3  65.8  64.6 1024.4 12.5  1.009 -99.9 -99.99 -9.99
2020/01/16 07:24 CST    0.03   0.77    3   88    4  66.0  64.6 1024.4 12.4  1.009 -99.9 -99.99 -9.99
2020/01/16 07:30 CST    0.03   0.77    2  117    3  66.4  64.6 1024.4 12.4  1.009 -99.9 -99.99 -9.99
2020/01/16 07:36 CST    0.03   0.76    3  110    3  66.2  64.6 1024.5 12.4  1.009 -99.9 -99.99 -9.99
2020/01/16 07:42 CST    0.03   0.76    3  100    3  66.2  64.6 1024.6 12.4  1.009 -99.9 -99.99 -9.99
2020/01/16 07:48 CST    0.03   0.76    3   87    3  66.2  64.6 1024.6 12.3  1.009 -99.9 -99.99 -9.99
2020/01/16 07:54 CST    0.02   0.75    3   93    4  66.2  64.6 1024.6 12.3  1.009 -99.9 -99.99 -9.99
2020/01/16 08:00 CST    0.03   0.74    4   87    5  66.4  64.6 1024.6 12.3  1.009 -99.9 -99.99 -9.99
2020/01/16 08:06 CST    0.03   0.74    4   79    5  66.4  64.6 1024.7 12.3  1.009 -99.9 -99.99 -9.99
2020/01/16 08:12 CST    0.03   0.74    4   79    4  66.6  64.6 1024.7 12.3  1.009 -99.9 -99.99 -9.99
2020/01/16 08:18 CST    0.03   0.74    5   84    6  66.7  64.6 1024.8 12.3  1.009 -99.9 -99.99 -9.99
2020/01/16 08:24 CST    0.03   0.74    5   84    6  66.7  64.6 1024.8 12.2  1.009 -99.9 -99.99 -9.99
2020/01/16 08:30 CST    0.04   0.73    4   99    5  66.7  64.6 1025.0 12.2  1.009 -99.9 -99.99 -9.99
2020/01/16 08:36 CST    0.04   0.73    4   87    6  66.9  64.6 1025.0 12.2  1.009 -99.9 -99.99 -9.99
2020/01/16 08:42 CST    0.04   0.73    5   88    5  66.9  64.6 1025.0 12.2  1.009 -99.9 -99.99 -9.99
2020/01/16 08:48 CST    0.05   0.73    4   85    5  66.9  64.6 1025.1 12.2  1.009 -99.9 -99.99 -9.99
2020/01/16 08:54 CST    0.05   0.73    4   74    6  66.9  64.6 1025.1 12.2  1.009 -99.9 -99.99 -9.99
2020/01/16 09:00 CST    0.06   0.73    5   87    6  66.9  64.6 1025.2 12.2  1.009 -99.9 -99.99 -9.99
2020/01/16 09:06 CST    0.06   0.74    5   90    7  67.1  64.6 1025.2 12.2  1.009 -99.9 -99.99 -9.99
2020/01/16 09:12 CST    0.07   0.74    5   85    6  67.1  64.6 1025.3 12.2  1.009 -99.9 -99.99 -9.99
2020/01/16 09:18 CST    0.07   0.73    6   95    7  67.1  64.6 1025.4 12.1  1.009 -99.9 -99.99 -9.99
2020/01/16 09:24 CST    0.08   0.73    6   97    8  67.3  64.6 1025.5 12.1  1.009 -99.9 -99.99 -9.99
2020/01/16 09:30 CST    0.08   0.74    6   96    8  67.3  64.6 1025.5 12.1  1.009 -99.9 -99.99 -9.99
2020/01/16 09:36 CST    0.09   0.75    6   97    7  67.3  64.6 1025.6 12.1  1.009 -99.9 -99.99 -9.99
2020/01/16 09:42 CST    0.10   0.76    6   97    6  67.3  64.6 1025.7 12.1  1.009 -99.9 -99.99 -9.99
2020/01/16 09:48 CST    0.10   0.76    6   96    7  67.3  64.6 1025.8 12.1  1.009 -99.9 -99.99 -9.99
2020/01/16 09:54 CST    0.11   0.75    5   92    8  67.3  64.6 1025.8 12.1  1.009 -99.9 -99.99 -9.99
2020/01/16 10:00 CST    0.12   0.76    7   98    8  67.3  64.6 1025.8 12.1  1.009 -99.9 -99.99 -9.99
2020/01/16 10:06 CST    0.12   0.77    6   99    8  67.1  64.8 1025.9 12.1  1.009 -99.9 -99.99 -9.99
2020/01/16 10:12 CST    0.13   0.77    6   97    7  67.1  64.8 1025.9 12.0  1.009 -99.9 -99.99 -9.99
2020/01/16 10:18 CST    0.14   0.78    6  110    7  67.3  64.8 1026.0 12.0  1.009 -99.9 -99.99 -9.99
2020/01/16 10:24 CST    0.14   0.78    7   95    8  67.1  64.8 1025.9 12.0  1.009 -99.9 -99.99 -9.99
2020/01/16 10:30 CST    0.15   0.79    7   98    9  67.3  64.8 1025.9 12.0  1.009 -99.9 -99.99 -9.99
2020/01/16 10:36 CST    0.16   0.80    7   99    8  67.1  64.8 1025.8 12.0  1.009 -99.9 -99.99 -9.99
2020/01/16 10:42 CST    0.17   0.81    8  109    9  67.1  64.8 1025.8 12.0  1.009 -99.9 -99.99 -9.99
2020/01/16 10:48 CST    0.17   0.82    9  114   11  66.9  64.8 1025.8 12.0  1.009 -99.9 -99.99 -9.99
2020/01/16 10:54 CST    0.18   0.82    7  122   10  66.7  64.8 1025.8 12.0  1.009 -99.9 -99.99 -9.99
2020/01/16 11:00 CST    0.19   0.82    8  118   11  66.6  64.8 1025.7 11.9  1.009 -99.9 -99.99 -9.99
2020/01/16 11:06 CST    0.19   0.82    7  114   10  66.7  64.9 1025.7 11.9  1.008 -99.9 -99.99 -9.99
2020/01/16 11:12 CST    0.20   0.84    8  105   10  66.6  64.9 1025.6 11.8  1.008 -99.9 -99.99 -9.99
2020/01/16 11:18 CST    0.20   0.85    8  108    9  66.7  64.9 1025.7 11.8  1.008 -99.9 -99.99 -9.99
2020/01/16 11:24 CST    0.21   0.85    7  104    9  66.7  64.9 1025.6 11.8  1.008 -99.9 -99.99 -9.99
2020/01/16 11:30 CST    0.21   0.84    7  110    8  66.9  64.9 1025.6 11.8  1.008 -99.9 -99.99 -9.99
2020/01/16 11:36 CST    0.22   0.84    7  110    8  66.9  64.9 1025.5 11.8  1.008 -99.9 -99.99 -9.99
2020/01/16 11:42 CST    0.22   0.84    7  108    8  67.1  64.9 1025.4 11.8  1.008 -99.9 -99.99 -9.99
2020/01/16 11:48 CST    0.22   0.86    8  106    9  67.1  64.9 1025.4 11.8  1.008 -99.9 -99.99 -9.99
2020/01/16 11:54 CST    0.23   0.85    7  104    9  67.1  64.9 1025.2 11.8  1.008 -99.9 -99.99 -9.99
2020/01/16 12:00 CST    0.23   0.85    8  106    9  67.3  64.9 1025.1 11.8  1.008 -99.9 -99.99 -9.99
2020/01/16 12:06 CST    0.23   0.85    8  103    9  67.3  64.9 1025.1 11.8  1.008 -99.9 -99.99 -9.99
2020/01/16 12:12 CST    0.23   0.85    7  105    8  67.3  64.9 1025.0 11.8  1.008 -99.9 -99.99 -9.99
2020/01/16 12:18 CST    0.23   0.85    7  102   10  67.3  64.9 1024.8 11.8  1.008 -99.9 -99.99 -9.99
2020/01/16 12:24 CST    0.23   0.85    6  109    9  67.3  64.9 1024.7 11.8  1.008 -99.9 -99.99 -9.99
2020/01/16 12:30 CST    0.23   0.86    7  102    9  67.5  65.1 1024.6 11.8  1.008 -99.9 -99.99 -9.99
2020/01/16 12:36 CST    0.23   0.85    8  102    9  67.5  65.1 1024.6 11.7  1.008 -99.9 -99.99 -9.99
2020/01/16 12:42 CST    0.23   0.85    7  107    9  67.6  65.1 1024.5 11.7  1.008 -99.9 -99.99 -9.99
2020/01/16 12:48 CST    0.23   0.84    6  106    8  67.6  65.1 1024.4 11.1  1.008 -99.9 -99.99 -9.99
2020/01/16 12:54 CST    0.23   0.85    7  102    8  67.6  65.1 1024.3 11.0  1.008 -99.9 -99.99 -9.99
2020/01/16 13:00 CST    0.23   0.86    6  101    7  67.6  65.1 1024.3 11.0  1.008 -99.9 -99.99 -9.99
2020/01/16 13:06 CST    0.23   0.85    5  136    8  67.5  65.1 1024.3 11.6  1.008 -99.9 -99.99 -9.99
2020/01/16 13:12 CST    0.23   0.84    6  145    7  67.5  65.1 1024.2 11.7  1.008 -99.9 -99.99 -9.99
2020/01/16 13:18 CST    0.22   0.84    6  137    7  67.3  65.1 1024.1 11.5  1.008 -99.9 -99.99 -9.99
2020/01/16 13:24 CST    0.22   0.84    5  135    6  67.3  65.1 1024.0 11.7  1.008 -99.9 -99.99 -9.99
2020/01/16 13:30 CST    0.22   0.83    7  123    8  67.5  65.1 1024.0 11.7  1.008 -99.9 -99.99 -9.99
2020/01/16 13:36 CST    0.21   0.83    8  120    9  67.5  65.1 1023.9 11.7  1.008 -99.9 -99.99 -9.99
2020/01/16 13:42 CST    0.21   0.82    6  116    9  67.3  65.1 1023.8 11.7  1.008 -99.9 -99.99 -9.99
2020/01/16 13:48 CST    0.21   0.82    6  113    8  67.5  65.1 1023.8 11.8  1.008 -99.9 -99.99 -9.99
2020/01/16 13:54 CST    0.20   0.83    7  110    9  67.5  64.9 1023.8 11.9  1.008 -99.9 -99.99 -9.99
2020/01/16 14:00 CST    0.20   0.83    7  103    9  67.8  64.9 1023.7 11.9  1.008 -99.9 -99.99 -9.99
2020/01/16 14:06 CST    0.19   0.82    7  108    9  68.2  64.9 1023.7 11.8  1.008 -99.9 -99.99 -9.99
2020/01/16 14:12 CST    0.19   0.81    7  106    9  68.4  65.1 1023.7 11.8  1.008 -99.9 -99.99 -9.99
2020/01/16 14:18 CST    0.18   0.77    6  114    8  68.5  65.1 1023.7 11.7  1.008 -99.9 -99.99 -9.99
2020/01/16 14:24 CST    0.17   0.79    7  124    9  68.7  65.1 1023.7 11.7  1.008 -99.9 -99.99 -9.99
2020/01/16 14:30 CST    0.17   0.78    8  121    9  68.7  65.1 1023.7 11.8  1.008 -99.9 -99.99 -9.99
2020/01/16 14:36 CST    0.16   0.76    7  123    8  68.7  64.9 1023.6 11.9  1.008 -99.9 -99.99 -9.99
2020/01/16 14:42 CST    0.15   0.77    7  115    8  68.9  64.8 1023.5 12.2  1.009 -99.9 -99.99 -9.99
2020/01/16 14:48 CST    0.14   0.76    5  119    7  68.9  64.8 1023.5 12.1  1.009 -99.9 -99.99 -9.99
2020/01/16 14:54 CST    0.14   0.76    7  117    9  69.1  64.8 1023.5 12.3  1.009 -99.9 -99.99 -9.99
2020/01/16 15:00 CST    0.13   0.75    7  129   10  68.9  64.6 1023.5 12.5  1.009 -99.9 -99.99 -9.99
2020/01/16 15:06 CST    0.12   0.75    7  134    9  68.7  64.4 1023.5 12.7  1.009 -99.9 -99.99 -9.99
2020/01/16 15:12 CST    0.11   0.73    6  138    8  68.7  64.4 1023.5 12.9  1.009 -99.9 -99.99 -9.99
2020/01/16 15:18 CST    0.10   0.74    7  147    9  68.0  64.4 1023.7 12.9  1.009 -99.9 -99.99 -9.99
2020/01/16 15:24 CST    0.09   0.75    4  141    8  67.6  64.4 1023.6 13.1  1.009 -99.9 -99.99 -9.99
2020/01/16 15:30 CST    0.08   0.72    8  136    9  67.3  64.4 1023.6 13.0  1.009 -99.9 -99.99 -9.99
2020/01/16 15:36 CST    0.07   0.72    5  146    9  67.5  64.2 1023.7 13.2  1.010 -99.9 -99.99 -9.99
2020/01/16 15:42 CST    0.06   0.70    4  154    6  67.5  64.2 1023.7 13.2  1.010 -99.9 -99.99 -9.99
2020/01/16 15:48 CST    0.04   0.68    5  145    7  67.3  64.2 1023.7 13.3  1.010 -99.9 -99.99 -9.99
2020/01/16 15:54 CST    0.03   0.69    5  147    7  67.5  64.2 1023.7 13.3  1.010 -99.9 -99.99 -9.99
2020/01/16 16:00 CST    0.02   0.70    5  143    7  67.5  64.2 1023.7 13.3  1.010 -99.9 -99.99 -9.99
2020/01/16 16:06 CST    0.01   0.61    6  148    8  67.5  64.4 1023.6 12.9  1.009 -99.9 -99.99 -9.99
2020/01/16 16:12 CST    0.00   0.65    5  148    8  67.5  64.4 1023.6 13.0  1.009 -99.9 -99.99 -9.99
2020/01/16 16:18 CST   -0.01   0.59    4  147    6  67.1  64.4 1023.6 12.9  1.009 -99.9 -99.99 -9.99
2020/01/16 16:24 CST   -0.02   0.65    6  131    9  67.5  64.6 1023.6 12.8  1.009 -99.9 -99.99 -9.99
2020/01/16 16:30 CST   -0.03   0.58    6  131    8  67.6  64.6 1023.6 12.8  1.009 -99.9 -99.99 -9.99
2020/01/16 16:36 CST   -0.04   0.56    5  131    8  67.6  64.8 1023.6 12.8  1.009 -99.9 -99.99 -9.99
2020/01/16 16:42 CST   -0.05   0.54    8  134    8  67.5  64.8 1023.5 12.7  1.009 -99.9 -99.99 -9.99
2020/01/16 16:48 CST   -0.06   0.52    8  130    9  67.3  64.8 1023.6 12.7  1.009 -99.9 -99.99 -9.99
2020/01/16 16:54 CST   -0.07   0.51    7  131    9  67.5  64.9 1023.6 12.5  1.009 -99.9 -99.99 -9.99
2020/01/16 17:00 CST   -0.08   0.57    6  130    8  67.1  64.9 1023.6 12.6  1.009 -99.9 -99.99 -9.99
2020/01/16 17:06 CST   -0.09   0.43    5  129    7  67.1  64.9 1023.5 12.6  1.009 -99.9 -99.99 -9.99
2020/01/16 17:12 CST   -0.10   0.51    5  118    7  67.3  64.9 1023.5 12.5  1.009 -99.9 -99.99 -9.99
2020/01/16 17:18 CST   -0.10   0.45    5  118    7  67.3  64.8 1023.6 12.6  1.009 -99.9 -99.99 -9.99
2020/01/16 17:24 CST   -0.11   0.52    7  128    9  67.3  64.8 1023.6 12.6  1.009 -99.9 -99.99 -9.99
2020/01/16 17:30 CST   -0.12   0.41    7  124    9  67.1  64.9 1023.6 12.5  1.009 -99.9 -99.99 -9.99
2020/01/16 17:36 CST   -0.13   0.44    5  116    7  66.9  64.9 1023.6 12.6  1.009 -99.9 -99.99 -9.99
2020/01/16 17:42 CST   -0.14   0.45    4  122    7  66.9  64.9 1023.6 12.5  1.009 -99.9 -99.99 -9.99
2020/01/16 17:48 CST   -0.14   0.53    4  121    5  66.9  64.9 1023.6 12.5  1.009 -99.9 -99.99 -9.99
2020/01/16 17:54 CST   -0.15   0.48    4  122    5  66.7  64.9 1023.6 12.5  1.009 -99.9 -99.99 -9.99
2020/01/16 18:00 CST   -0.16   0.52    6  125    7  66.9  64.9 1023.6 12.5  1.009 -99.9 -99.99 -9.99
2020/01/16 18:06 CST   -0.17   0.45    5  120    6  66.7  64.9 1023.5 12.5  1.009 -99.9 -99.99 -9.99
2020/01/16 18:12 CST   -0.17   0.44    6  117    8  67.1  64.9 1023.5 12.5  1.009 -99.9 -99.99 -9.99
2020/01/16 18:18 CST   -0.18   0.35    6  113    7  66.9  65.1 1023.6 12.5  1.009 -99.9 -99.99 -9.99
2020/01/16 18:24 CST   -0.19   0.51    7  121   10  67.3  65.1 1023.6 12.4  1.009 -99.9 -99.99 -9.99
2020/01/16 18:30 CST   -0.19   0.45    8  122   10  67.1  65.1 1023.7 12.4  1.009 -99.9 -99.99 -9.99
2020/01/16 18:36 CST   -0.20   0.49    8  123    9  67.1  65.3 1023.8 12.3  1.009 -99.9 -99.99 -9.99
2020/01/16 18:42 CST   -0.20   0.46    8  117    9  67.1  65.3 1023.9 12.3  1.009 -99.9 -99.99 -9.99
2020/01/16 18:48 CST   -0.21   0.42    6  119    9  66.7  65.3 1023.9 12.4  1.009 -99.9 -99.99 -9.99
2020/01/16 18:54 CST   -0.21   0.48    6  115    8  66.6  65.3 1024.0 12.3  1.009 -99.9 -99.99 -9.99
2020/01/16 19:00 CST   -0.22   0.49    5  104    7  66.4  65.3 1024.0 12.4  1.009 -99.9 -99.99 -9.99
2020/01/16 19:06 CST   -0.22   0.48    7  111    8  66.2  65.3 1024.1 12.3  1.009 -99.9 -99.99 -9.99
2020/01/16 19:12 CST   -0.22   0.46    7  109    8  66.6  65.1 1024.1 12.4  1.009 -99.9 -99.99 -9.99
2020/01/16 19:18 CST   -0.22   0.44    6  110    8  66.6  65.1 1024.2 12.4  1.009 -99.9 -99.99 -9.99
2020/01/16 19:24 CST   -0.22   0.46    6  106    7  66.6  65.1 1024.2 12.4  1.009 -99.9 -99.99 -9.99
2020/01/16 19:30 CST   -0.22   0.52    7  114    8  66.7  65.1 1024.2 12.4  1.009 -99.9 -99.99 -9.99
2020/01/16 19:36 CST   -0.22   0.52    6  110    9  66.6  65.1 1024.3 12.4  1.009 -99.9 -99.99 -9.99
2020/01/16 19:42 CST   -0.22   0.47    6  108    8  66.6  65.1 1024.4 12.3  1.009 -99.9 -99.99 -9.99
2020/01/16 19:48 CST   -0.22   0.50    6  103    8  66.6  65.1 1024.5 12.3  1.009 -99.9 -99.99 -9.99
2020/01/16 19:54 CST   -0.21   0.51    5   99    7  66.7  65.1 1024.6 12.3  1.009 -99.9 -99.99 -9.99
2020/01/16 20:00 CST   -0.21   0.50    5  101    7  66.9  64.9 1024.7 12.3  1.009 -99.9 -99.99 -9.99
2020/01/16 20:06 CST   -0.20   0.54    7  100    8  67.1  64.9 1024.7 12.3  1.009 -99.9 -99.99 -9.99
2020/01/16 20:12 CST   -0.20   0.55    6   98    8  66.9  64.9 1024.8 12.3  1.009 -99.9 -99.99 -9.99
2020/01/16 20:18 CST   -0.19   0.59    6   97    8  66.9  64.9 1024.9 12.4  1.009 -99.9 -99.99 -9.99
2020/01/16 20:24 CST   -0.18   0.56    7   84    8  66.9  64.9 1025.1 12.4  1.009 -99.9 -99.99 -9.99
2020/01/16 20:30 CST   -0.17   0.59    8   75   10  66.9  64.9 1025.1 12.4  1.009 -99.9 -99.99 -9.99
2020/01/16 20:36 CST   -0.16   0.61    8   77   11  66.9  64.9 1025.1 12.4  1.009 -99.9 -99.99 -9.99
2020/01/16 20:42 CST   -0.15   0.63    9   82   11  67.1  64.9 1025.1 12.4  1.009 -99.9 -99.99 -9.99
2020/01/16 20:48 CST   -0.14   0.62    9   78   11  67.1  64.9 1025.1 12.5  1.009 -99.9 -99.99 -9.99
2020/01/16 20:54 CST   -0.13   0.64    8   86   11  67.1  64.8 1025.1 12.6  1.009 -99.9 -99.99 -9.99
2020/01/16 21:00 CST   -0.12   0.64   11   91   14  67.3  64.8 1025.0 12.6  1.009 -99.9 -99.99 -9.99
2020/01/16 21:06 CST   -0.11   0.69   11   77   13  66.9  64.8 1025.0 12.5  1.009 -99.9 -99.99 -9.99
2020/01/16 21:12 CST   -0.10   0.70   10   78   14  66.6  64.9 1025.0 12.4  1.009 -99.9 -99.99 -9.99
2020/01/16 21:18 CST   -0.09   0.71    9   79   13  66.4  64.9 1025.1 12.4  1.009 -99.9 -99.99 -9.99
2020/01/16 21:24 CST   -0.07   0.74   10   76   12  66.0  64.9 1025.1 12.4  1.009 -99.9 -99.99 -9.99
2020/01/16 21:30 CST   -0.06   0.79   11   73   12  66.0  64.9 1025.1 12.4  1.009 -99.9 -99.99 -9.99
2020/01/16 21:36 CST   -0.05   0.82   11   74   13  65.8  64.9 1025.1 12.4  1.009 -99.9 -99.99 -9.99
2020/01/16 21:42 CST   -0.03   0.85    9   75   13  65.8  64.9 1025.1 12.3  1.009 -99.9 -99.99 -9.99
2020/01/16 21:48 CST   -0.02   0.88    9   78   11  65.8  64.9 1025.2 12.3  1.009 -99.9 -99.99 -9.99
2020/01/16 21:54 CST   -0.01   0.92   10   75   12  65.8  64.9 1025.1 12.3  1.009 -99.9 -99.99 -9.99
2020/01/16 22:00 CST    0.01   0.97   11   73   13  65.8  64.9 1025.2 12.3  1.009 -99.9 -99.99 -9.99
2020/01/16 22:06 CST    0.02   0.98   11   72   14  65.8  64.9 1025.1 12.2  1.009 -99.9 -99.99 -9.99
2020/01/16 22:12 CST    0.04   0.99   12   74   16  65.8  64.9 1025.1 12.2  1.009 -99.9 -99.99 -9.99
2020/01/16 22:18 CST    0.05   1.01   12   75   15  65.8  64.9 1025.2 12.2  1.009 -99.9 -99.99 -9.99
2020/01/16 22:24 CST    0.06   1.03   10   80   12  65.8  64.9 1025.3 12.2  1.009 -99.9 -99.99 -9.99
2020/01/16 22:30 CST    0.08   1.04    9   82   14  65.8  64.9 1025.3 12.3  1.009 -99.9 -99.99 -9.99
2020/01/16 22:36 CST    0.09   1.05   13   82   15  65.8  64.9 1025.3 12.3  1.009 -99.9 -99.99 -9.99
2020/01/16 22:42 CST    0.11   1.07   14   77   16  65.3  64.9 1025.3 12.3  1.009 -99.9 -99.99 -9.99
2020/01/16 22:48 CST    0.12   1.12   11   82   17  65.3  64.9 1025.3 12.3  1.009 -99.9 -99.99 -9.99
2020/01/16 22:54 CST    0.13   1.16   14   83   18  65.1  64.9 1025.3 12.4  1.009 -99.9 -99.99 -9.99
2020/01/16 23:00 CST    0.15   1.18   12   78   15  65.1  64.9 1025.2 12.4  1.009 -99.9 -99.99 -9.99
2020/01/16 23:06 CST    0.16   1.21   10   84   14  65.1  64.9 1025.3 12.5  1.009 -99.9 -99.99 -9.99
2020/01/16 23:12 CST    0.17   1.23   11   77   13  65.1  64.9 1025.3 12.6  1.009 -99.9 -99.99 -9.99
2020/01/16 23:18 CST    0.19   1.26   14   69   16  64.9  64.8 1025.3 12.7  1.009 -99.9 -99.99 -9.99
2020/01/16 23:24 CST    0.20   1.28   14   76   16  64.6  64.8 1025.2 12.8  1.009 -99.9 -99.99 -9.99
2020/01/16 23:30 CST    0.21   1.29   14   79   19  64.6  64.8 1025.2 12.9  1.009 -99.9 -99.99 -9.99
2020/01/16 23:36 CST    0.22   1.32   11   78   15  64.4  64.8 1025.2 13.0  1.009 -99.9 -99.99 -9.99
2020/01/16 23:42 CST    0.24   1.33   11   69   14  64.4  64.8 1025.2 13.0  1.009 -99.9 -99.99 -9.99
2020/01/16 23:48 CST    0.25   1.35   10   74   14  64.4  64.8 1025.2 13.0  1.009 -99.9 -99.99 -9.99
2020/01/16 23:54 CST    0.26   1.35   14   74   17  63.9  64.8 1025.1 12.9  1.009 -99.9 -99.99 -9.99
2020/01/17 00:00 CST    0.27   1.35   12   79   16  63.7  64.8 1025.2 12.8  1.009 -99.9 -99.99 -9.99
2020/01/17 00:06 CST    0.28   1.37   13   80   16  63.7  64.8 1025.2 12.8  1.009 -99.9 -99.99 -9.99
2020/01/17 00:12 CST    0.29   1.38   11   80   16  63.9  64.8 1025.3 12.8  1.009 -99.9 -99.99 -9.99
2020/01/17 00:18 CST    0.30   1.39   12   75   14  63.7  64.8 1025.2 12.9  1.009 -99.9 -99.99 -9.99
2020/01/17 00:24 CST    0.30   1.39   11   82   13  63.9  64.8 1025.2 13.0  1.009 -99.9 -99.99 -9.99
2020/01/17 00:30 CST    0.31   1.39   10   80   14  63.9  64.8 1025.2 13.0  1.009 -99.9 -99.99 -9.99
2020/01/17 00:36 CST    0.32   1.39   13   81   16  63.7  64.8 1025.2 13.1  1.009 -99.9 -99.99 -9.99
2020/01/17 00:42 CST    0.32   1.40   12   83   17  63.7  64.8 1025.1 13.2  1.010 -99.9 -99.99 -9.99
2020/01/17 00:48 CST    0.33   1.42   11   86   15  63.7  64.6 1025.1 13.3  1.010 -99.9 -99.99 -9.99
2020/01/17 00:54 CST    0.33   1.46   11   79   15  63.7  64.6 1025.0 13.4  1.010 -99.9 -99.99 -9.99
2020/01/17 01:00 CST    0.34   1.48   10   69   13  63.7  64.6 1025.1 13.4  1.010 -99.9 -99.99 -9.99
2020/01/17 01:06 CST    0.34   1.48   13   69   14  63.3  64.6 1024.9 13.4  1.010 -99.9 -99.99 -9.99
2020/01/17 01:12 CST    0.35   1.47   12   72   15  63.3  64.6 1024.9 13.5  1.010 -99.9 -99.99 -9.99
2020/01/17 01:18 CST    0.35   1.46   13   72   15  63.3  64.6 1024.8 13.5  1.010 -99.9 -99.99 -9.99
2020/01/17 01:24 CST    0.35   1.46   12   69   15  63.1  64.8 1024.8 13.5  1.010 -99.9 -99.99 -9.99
2020/01/17 01:30 CST    0.35   1.47   12   72   15  63.1  64.8 1024.8 13.5  1.010 -99.9 -99.99 -9.99
2020/01/17 01:36 CST    0.36   1.46   12   80   14  63.0  64.8 1024.8 13.5  1.010 -99.9 -99.99 -9.99
2020/01/17 01:42 CST    0.36   1.47   12   81   16  63.0  64.8 1024.7 13.6  1.010 -99.9 -99.99 -9.99
2020/01/17 01:48 CST    0.36   1.47   13   74   15  63.0  64.8 1024.7 13.6  1.010 -99.9 -99.99 -9.99
2020/01/17 01:54 CST    0.36   1.47   13   79   15  63.0  64.8 1024.7 13.7  1.010 -99.9 -99.99 -9.99
2020/01/17 02:00 CST    0.36   1.46   12   83   15  63.0  64.8 1024.6 13.6  1.010 -99.9 -99.99 -9.99
2020/01/17 02:06 CST    0.35   1.46   12   76   15  62.8  64.9 1024.6 13.6  1.010 -99.9 -99.99 -9.99
2020/01/17 02:12 CST    0.35   1.46   12   74   14  62.6  64.9 1024.5 13.6  1.010 -99.9 -99.99 -9.99
2020/01/17 02:18 CST    0.35   1.46   13   74   16  62.6  64.9 1024.5 13.6  1.010 -99.9 -99.99 -9.99
2020/01/17 02:24 CST    0.35   1.45   14   76   16  62.4  64.9 1024.4 13.5  1.010 -99.9 -99.99 -9.99
2020/01/17 02:30 CST    0.34   1.46   13   79   16  62.6  64.9 1024.5 13.5  1.010 -99.9 -99.99 -9.99
2020/01/17 02:36 CST    0.34   1.46   12   78   15  62.4  65.1 1024.5 13.5  1.010 -99.9 -99.99 -9.99
2020/01/17 02:42 CST    0.33   1.46   12   78   15  62.4  64.9 1024.4 13.5  1.010 -99.9 -99.99 -9.99
2020/01/17 02:48 CST    0.33   1.45   11   72   16  62.4  64.9 1024.4 13.5  1.010 -99.9 -99.99 -9.99
2020/01/17 02:54 CST    0.32   1.43   13   77   16  62.2  64.9 1024.3 13.4  1.010 -99.9 -99.99 -9.99
2020/01/17 03:00 CST    0.31   1.42   14   75   16  62.2  64.9 1024.3 13.4  1.010 -99.9 -99.99 -9.99
2020/01/17 03:06 CST    0.31   1.41   11   76   13  62.4  64.9 1024.3 13.4  1.010 -99.9 -99.99 -9.99
2020/01/17 03:12 CST    0.30   1.39   13   69   15  62.2  64.9 1024.3 13.4  1.010 -99.9 -99.99 -9.99
2020/01/17 03:18 CST    0.29   1.38   14   77   17  62.1  64.9 1024.3 13.5  1.010 -99.9 -99.99 -9.99
2020/01/17 03:24 CST    0.28   1.36   13   72   15  62.1  64.9 1024.3 13.5  1.010 -99.9 -99.99 -9.99
2020/01/17 03:30 CST    0.27   1.35   11   72   13  62.1  65.1 1024.3 13.5  1.010 -99.9 -99.99 -9.99
2020/01/17 03:36 CST    0.26   1.34   11   72   14  61.9  65.1 1024.3 13.5  1.010 -99.9 -99.99 -9.99
2020/01/17 03:42 CST    0.25   1.34   12   77   15  61.9  65.1 1024.2 13.5  1.010 -99.9 -99.99 -9.99
2020/01/17 03:48 CST    0.24   1.33   11   73   15  61.9  65.1 1024.2 13.5  1.010 -99.9 -99.99 -9.99
2020/01/17 03:54 CST    0.22   1.32   13   76   15  61.9  65.1 1024.2 13.5  1.010 -99.9 -99.99 -9.99
2020/01/17 04:00 CST    0.21   1.31   12   78   15  61.7  65.1 1024.1 13.5  1.010 -99.9 -99.99 -9.99
2020/01/17 04:06 CST    0.20   1.30   10   78   16  61.7  65.1 1024.1 13.5  1.010 -99.9 -99.99 -9.99
2020/01/17 04:12 CST    0.19   1.28   11   77   15  61.5  65.1 1024.0 13.5  1.010 -99.9 -99.99 -9.99
2020/01/17 04:18 CST    0.17   1.27   12   73   15  61.3  65.1 1024.0 13.5  1.010 -99.9 -99.99 -9.99
2020/01/17 04:24 CST    0.16   1.26   12   75   15  61.3  65.1 1024.0 13.5  1.010 -99.9 -99.99 -9.99
2020/01/17 04:30 CST    0.15   1.24   11   72   14  61.5  65.1 1023.9 13.4  1.010 -99.9 -99.99 -9.99
2020/01/17 04:36 CST    0.13   1.22   12   77   14  61.3  65.1 1023.8 13.4  1.010 -99.9 -99.99 -9.99
2020/01/17 04:42 CST    0.12   1.20   13   77   15  61.3  65.1 1023.8 13.4  1.010 -99.9 -99.99 -9.99
2020/01/17 04:48 CST    0.11   1.18   13   76   15  61.3  65.1 1023.8 13.4  1.010 -99.9 -99.99 -9.99
2020/01/17 04:54 CST    0.10   1.16   12   75   15  61.3  65.1 1023.8 13.3  1.010 -99.9 -99.99 -9.99
2020/01/17 05:00 CST    0.08   1.14   13   73   16  61.3  65.1 1023.7 13.3  1.010 -99.9 -99.99 -9.99
2020/01/17 05:06 CST    0.07   1.12   11   75   17  61.3  65.1 1023.8 13.2  1.009 -99.9 -99.99 -9.99
2020/01/17 05:12 CST    0.06   1.10   12   76   15  61.5  65.3 1023.9 13.1  1.009 -99.9 -99.99 -9.99
2020/01/17 05:18 CST    0.04   1.09   13   75   16  61.3  65.3 1023.9 13.1  1.009 -99.9 -99.99 -9.99
2020/01/17 05:24 CST    0.03   1.07   13   74   16  61.3  65.3 1023.9 13.1  1.009 -99.9 -99.99 -9.99
2020/01/17 05:30 CST    0.02   1.06   13   72   15  61.3  65.3 1023.9 13.1  1.009 -99.9 -99.99 -9.99
2020/01/17 05:36 CST    0.00   1.06   14   73   17  61.3  65.3 1023.9 13.1  1.009 -99.9 -99.99 -9.99
2020/01/17 05:42 CST   -0.01   1.05   13   71   16  61.2  65.3 1023.9 13.1  1.009 -99.9 -99.99 -9.99
2020/01/17 05:48 CST   -0.02   1.03   13   75   16  61.2  65.3 1023.9 13.1  1.009 -99.9 -99.99 -9.99
2020/01/17 05:54 CST   -0.03   1.02   13   79   17  61.2  65.3 1023.9 13.1  1.009 -99.9 -99.99 -9.99
2020/01/17 06:00 CST   -0.05   1.01   14   79   17  61.0  65.3 1023.8 13.0  1.009 -99.9 -99.99 -9.99
2020/01/17 06:06 CST   -0.06   1.02   13   75   17  61.2  65.1 1023.9 13.1  1.009 -99.9 -99.99 -9.99
2020/01/17 06:12 CST   -0.07   1.00   13   77   16  61.2  65.1 1023.9 13.1  1.009 -99.9 -99.99 -9.99
2020/01/17 06:18 CST   -0.09   1.00   13   75   16  61.2  65.1 1024.0 12.9  1.009 -99.9 -99.99 -9.99
2020/01/17 06:24 CST   -0.10   0.90   12   77   17  61.0  65.1 1024.1 12.9  1.009 -99.9 -99.99 -9.99
2020/01/17 06:30 CST   -0.11   0.99   13   79   15  61.0  65.1 1024.1 12.9  1.009 -99.9 -99.99 -9.99
2020/01/17 06:36 CST   -0.12   0.94   13   74   16  61.0  65.1 1024.2 12.9  1.009 -99.9 -99.99 -9.99
2020/01/17 06:42 CST   -0.14   0.97   11   74   15  61.2  65.1 1024.2 12.9  1.009 -99.9 -99.99 -9.99
2020/01/17 06:48 CST   -0.15   0.98   12   76   15  61.3  65.1 1024.2 12.9  1.009 -99.9 -99.99 -9.99
2020/01/17 06:54 CST   -0.16   0.80   11   75   14  61.3  65.1 1024.3 12.9  1.009 -99.9 -99.99 -9.99
2020/01/17 07:00 CST   -0.17   0.93   12   76   16  61.3  65.1 1024.3 12.8  1.009 -99.9 -99.99 -9.99
2020/01/17 07:06 CST   -0.18   0.88   13   73   15  61.3  65.1 1024.4 12.8  1.009 -99.9 -99.99 -9.99
2020/01/17 07:12 CST   -0.19   0.91   12   73   15  61.3  65.1 1024.4 12.9  1.009 -99.9 -99.99 -9.99
2020/01/17 07:18 CST   -0.20   0.89   12   77   14  61.3  65.1 1024.4 12.9  1.009 -99.9 -99.99 -9.99
2020/01/17 07:24 CST   -0.21   0.91   12   73   14  61.5  65.1 1024.5 12.9  1.009 -99.9 -99.99 -9.99
2020/01/17 07:30 CST   -0.22   0.84   10   75   13  61.3  65.1 1024.6 12.9  1.009 -99.9 -99.99 -9.99
2020/01/17 07:36 CST   -0.23   0.91   13   70   16  61.3  65.1 1024.5 12.8  1.009 -99.9 -99.99 -9.99
2020/01/17 07:42 CST   -0.24   0.89   11   71   13  61.3  64.9 1024.6 12.9  1.009 -99.9 -99.99 -9.99
2020/01/17 07:48 CST   -0.24   0.89   11   70   13  61.3  64.9 1024.7 12.9  1.009 -99.9 -99.99 -9.99
2020/01/17 07:54 CST   -0.25   0.86   10   73   12  61.5  64.9 1024.8 12.9  1.009 -99.9 -99.99 -9.99
2020/01/17 08:00 CST   -0.25   0.86   10   80   12  61.7  64.9 1024.7 12.9  1.009 -99.9 -99.99 -9.99
2020/01/17 08:06 CST   -0.26   0.85   10   84   12  61.9  64.9 1024.7 12.9  1.009 -99.9 -99.99 -9.99
2020/01/17 08:12 CST   -0.26   0.86   10   76   13  61.9  64.9 1024.6 12.8  1.009 -99.9 -99.99 -9.99
2020/01/17 08:18 CST   -0.26   0.84   13   75   15  62.1  64.9 1024.5 12.8  1.009 -99.9 -99.99 -9.99
2020/01/17 08:24 CST   -0.26   0.89   12   79   15  62.1  64.9 1024.6 12.7  1.009 -99.9 -99.99 -9.99
2020/01/17 08:30 CST   -0.26   0.87   10   80   14  62.2  64.9 1024.6 12.7  1.009 -99.9 -99.99 -9.99
2020/01/17 08:36 CST   -0.26   0.88   12   81   14  62.2  64.9 1024.6 12.7  1.009 -99.9 -99.99 -9.99
2020/01/17 08:42 CST   -0.26   0.95   13   82   14  62.6  64.9 1024.6 12.6  1.009 -99.9 -99.99 -9.99
2020/01/17 08:48 CST   -0.25   0.94   12   84   15  62.8  64.9 1024.6 12.6  1.009 -99.9 -99.99 -9.99
2020/01/17 08:54 CST   -0.25   0.99   13   86   16  63.0  64.9 1024.6 12.6  1.009 -99.9 -99.99 -9.99
2020/01/17 09:00 CST   -0.25   0.97   11   89   16  63.1  64.9 1024.6 12.5  1.009 -99.9 -99.99 -9.99
2020/01/17 09:06 CST   -0.24   1.00   13   84   17  63.1  64.9 1024.6 12.5  1.009 -99.9 -99.99 -9.99
2020/01/17 09:12 CST   -0.23   0.99   13   89   17  63.3  64.9 1024.8 12.5  1.009 -99.9 -99.99 -9.99
2020/01/17 09:18 CST   -0.23   1.14   12   93   16  63.3  64.8 1024.7 12.7  1.009 -99.9 -99.99 -9.99
2020/01/17 09:24 CST   -0.22   1.19   14   89   20  63.5  64.8 1024.7 12.9  1.009 -99.9 -99.99 -9.99
2020/01/17 09:30 CST   -0.21   1.22   13   97   18  63.7  64.6 1024.8 13.0  1.009 -99.9 -99.99 -9.99
2020/01/17 09:36 CST   -0.20   1.18   13   99   16  63.7  64.6 1024.9 13.2  1.010 -99.9 -99.99 -9.99
2020/01/17 09:42 CST   -0.19   1.19   15   93   18  63.9  64.6 1024.8 13.4  1.010 -99.9 -99.99 -9.99
2020/01/17 09:48 CST   -0.19   1.30   15   98   18  64.0  64.4 1024.8 13.5  1.010 -99.9 -99.99 -9.99
2020/01/17 09:54 CST   -0.18   1.12   15   98   19  64.0  64.6 1024.8 13.6  1.010 -99.9 -99.99 -9.99
2020/01/17 10:00 CST   -0.17   1.25   14   97   18  64.2  64.6 1024.8 13.5  1.010 -99.9 -99.99 -9.99
2020/01/17 10:06 CST   -0.16   1.17   14   98   17  64.2  64.6 1024.8 13.5  1.010 -99.9 -99.99 -9.99
2020/01/17 10:12 CST   -0.15   1.31   15   93   18  64.4  64.4 1024.9 13.7  1.010 -99.9 -99.99 -9.99
2020/01/17 10:18 CST   -0.13   1.29   13   99   17  64.6  64.4 1025.0 13.7  1.010 -99.9 -99.99 -9.99
2020/01/17 10:24 CST   -0.12   1.30   12  100   17  64.8  64.6 1025.0 13.7  1.010 -99.9 -99.99 -9.99
2020/01/17 10:30 CST   -0.11   1.36   15  102   18  64.8  64.4 1025.0 13.8  1.010 -99.9 -99.99 -9.99
2020/01/17 10:36 CST   -0.10   1.32   16   98   19  64.8  64.4 1024.9 13.9  1.010 -99.9 -99.99 -9.99
2020/01/17 10:42 CST   -0.09   1.35   16  100   19  64.9  64.4 1024.8 13.9  1.010 -99.9 -99.99 -9.99
2020/01/17 10:48 CST   -0.08   1.23   14   96   17  65.1  64.6 1024.8 14.0  1.010 -99.9 -99.99 -9.99
2020/01/17 10:54 CST   -0.06   1.34   15  105   18  65.3  64.4 1024.9 14.1  1.010 -99.9 -99.99 -9.99
2020/01/17 11:00 CST   -0.05   1.31   14  104   17  65.7  64.4 1024.9 14.1  1.010 -99.9 -99.99 -9.99
2020/01/17 11:06 CST   -0.04   1.48   13  100   16  66.0  64.4 1024.9 14.2  1.010 -99.9 -99.99 -9.99
2020/01/17 11:12 CST   -0.03   1.16   12  105   15  66.2  64.4 1024.9 14.1  1.010 -99.9 -99.99 -9.99
2020/01/17 11:18 CST   -0.01   1.35   13  105   14  66.4  64.4 1024.8 14.1  1.010 -99.9 -99.99 -9.99
2020/01/17 11:24 CST   -0.00   1.46   14  104   17  66.4  64.4 1024.7 14.2  1.010 -99.9 -99.99 -9.99
2020/01/17 11:30 CST    0.01   1.32   16  105   19  66.7  64.4 1024.6 14.2  1.010 -99.9 -99.99 -9.99
2020/01/17 11:36 CST    0.03   1.35   13  113   19  66.9  64.4 1024.5 14.3  1.010 -99.9 -99.99 -9.99
2020/01/17 11:42 CST    0.04   1.33   15  109   21  67.1  64.4 1024.4 14.3  1.010 -99.9 -99.99 -9.99
2020/01/17 11:48 CST    0.05   1.43   17  108   20  67.1  64.2 1024.4 14.6  1.011 -99.9 -99.99 -9.99
2020/01/17 11:54 CST    0.06   1.42   15  106   18  67.1  64.2 1024.4 14.7  1.011 -99.9 -99.99 -9.99
2020/01/17 12:00 CST    0.08   1.48   14  108   19  67.5  64.2 1024.4 14.7  1.011 -99.9 -99.99 -9.99
2020/01/17 12:06 CST    0.09   1.49   16  108   20  67.3  64.2 1024.3 14.7  1.011 -99.9 -99.99 -9.99
2020/01/17 12:12 CST    0.10   1.56   16  102   21  67.5  64.2 1024.1 15.0  1.011 -99.9 -99.99 -9.99
2020/01/17 12:18 CST    0.12   1.65   16  107   20  67.6  64.0 1024.0 15.1  1.011 -99.9 -99.99 -9.99
2020/01/17 12:24 CST    0.13   1.44   16  107   19  67.5  64.0 1023.7 15.2  1.011 -99.9 -99.99 -9.99
2020/01/17 12:30 CST    0.14   1.66   16  106   18  67.5  64.0 1023.6 15.3  1.011 -99.9 -99.99 -9.99
2020/01/17 12:36 CST    0.15   1.59   14  110   20  67.5  64.0 1023.6 15.3  1.011 -99.9 -99.99 -9.99
2020/01/17 12:42 CST    0.16   1.62   17  109   19  67.3  64.0 1023.6 15.4  1.011 -99.9 -99.99 -9.99
2020/01/17 12:48 CST    0.17   1.65   13  107   17  67.1  64.0 1023.4 15.4  1.011 -99.9 -99.99 -9.99
2020/01/17 12:54 CST    0.18   1.64   14  108   19  67.3  64.0 1023.2 15.4  1.011 -99.9 -99.99 -9.99
2020/01/17 13:00 CST    0.19   1.71   17  107   19  66.7  64.0 1023.0 15.4  1.011 -99.9 -99.99 -9.99
2020/01/17 13:06 CST    0.20   1.68   16  109   19  66.4  64.0 1022.9 15.4  1.011 -99.9 -99.99 -9.99
2020/01/17 13:12 CST    0.21   1.66   17  107   19  66.2  64.0 1022.8 15.4  1.011 -99.9 -99.99 -9.99
2020/01/17 13:18 CST    0.22   1.74   15  104   19  66.2  64.0 1022.6 15.4  1.011 -99.9 -99.99 -9.99
2020/01/17 13:24 CST    0.23   1.41   16  105   19  66.4  64.2 1022.5 15.4  1.011 -99.9 -99.99 -9.99
2020/01/17 13:30 CST    0.24   1.65   16  105   21  66.2  64.4 1022.3 15.4  1.011 -99.9 -99.99 -9.99
2020/01/17 13:36 CST    0.25   1.69   15  110   20  66.4  64.4 1022.1 15.4  1.011 -99.9 -99.99 -9.99
2020/01/17 13:42 CST    0.26   1.79   15  104   19  66.7  64.6 1022.0 15.3  1.011 -99.9 -99.99 -9.99
2020/01/17 13:48 CST    0.26   1.84   16  107   19  66.9  64.6 1021.9 15.3  1.011 -99.9 -99.99 -9.99
2020/01/17 13:54 CST    0.27   1.85   15  106   19  67.3  64.6 1021.9 15.3  1.011 -99.9 -99.99 -9.99
2020/01/17 14:00 CST    0.28   1.84   12  116   17  67.1  64.6 1021.9 15.3  1.011 -99.9 -99.99 -9.99
2020/01/17 14:06 CST    0.28   1.62   14  112   17  66.7  64.6 1021.7 15.3  1.011 -99.9 -99.99 -9.99
2020/01/17 14:12 CST    0.29   1.78   17  103   20  66.2  64.6 1021.6 15.3  1.011 -99.9 -99.99 -9.99
2020/01/17 14:18 CST    0.29   1.76   15  108   20  66.0  64.8 1021.5 15.3  1.011 -99.9 -99.99 -9.99
2020/01/17 14:24 CST    0.30   1.80   15  116   19  66.0  64.8 1021.6 15.3  1.011 -99.9 -99.99 -9.99
2020/01/17 14:30 CST    0.30   1.73   13  116   18  66.0  64.6 1021.6 15.4  1.011 -99.9 -99.99 -9.99
2020/01/17 14:36 CST    0.31   1.71   16  114   20  65.8  64.6 1021.5 15.4  1.011 -99.9 -99.99 -9.99
2020/01/17 14:42 CST    0.31   1.81   15  110   19  66.0  64.6 1021.5 15.5  1.011 -99.9 -99.99 -9.99
2020/01/17 14:48 CST    0.31   1.86   13  110   18  66.0  64.8 1021.4 15.4  1.011 -99.9 -99.99 -9.99
2020/01/17 14:54 CST    0.32   1.84   15  114   18  66.0  64.8 1021.4 15.4  1.011 -99.9 -99.99 -9.99
2020/01/17 15:00 CST    0.32   1.84   16  113   18  65.8  64.6 1021.4 15.5  1.011 -99.9 -99.99 -9.99
2020/01/17 15:06 CST    0.32   1.66   15  114   19  65.7  64.6 1021.3 15.5  1.011 -99.9 -99.99 -9.99
2020/01/17 15:12 CST    0.32   1.89   14  114   17  65.8  64.6 1021.2 15.6  1.011 -99.9 -99.99 -9.99
2020/01/17 15:18 CST    0.32   1.88   15  115   19  66.0  64.6 1021.2 15.7  1.011 -99.9 -99.99 -9.99
2020/01/17 15:24 CST    0.32   1.84   14  115   19  66.0  64.6 1021.2 15.7  1.011 -99.9 -99.99 -9.99
2020/01/17 15:30 CST    0.32   1.87   16  112   19  66.0  64.6 1021.0 15.7  1.011 -99.9 -99.99 -9.99
2020/01/17 15:36 CST    0.32   1.90   17  107   19  66.0  64.6 1021.0 15.7  1.011 -99.9 -99.99 -9.99
2020/01/17 15:42 CST    0.31   1.89   15  109   18  65.8  64.4 1021.1 15.8  1.012 -99.9 -99.99 -9.99
2020/01/17 15:48 CST    0.31   1.88   14  110   18  65.8  64.6 1021.1 15.7  1.011 -99.9 -99.99 -9.99
2020/01/17 15:54 CST    0.31   1.73   15  112   19  65.7  64.6 1021.1 15.7  1.011 -99.9 -99.99 -9.99
2020/01/17 16:00 CST    0.31   1.76   14  111   19  65.7  64.8 1021.1 15.6  1.011 -99.9 -99.99 -9.99
2020/01/17 16:06 CST    0.30   1.74   14  113   19  65.7  64.8 1021.2 15.6  1.011 -99.9 -99.99 -9.99
2020/01/17 16:12 CST    0.30   1.86   15  112   19  65.7  64.8 1021.2 15.6  1.011 -99.9 -99.99 -9.99
2020/01/17 16:18 CST    0.29   1.74   17  113   18  65.7  64.6 1021.1 15.7  1.011 -99.9 -99.99 -9.99
2020/01/17 16:24 CST    0.29   1.84   16  117   18  65.7  64.6 1021.0 15.7  1.011 -99.9 -99.99 -9.99
2020/01/17 16:30 CST    0.28   1.85   13  113   19  65.7  64.6 1021.0 15.7  1.011 -99.9 -99.99 -9.99
2020/01/17 16:36 CST    0.28   1.76   15  110   20  65.7  64.6 1021.1 15.7  1.011 -99.9 -99.99 -9.99
2020/01/17 16:42 CST    0.27   1.87   15  114   19  65.5  64.6 1021.1 15.7  1.011 -99.9 -99.99 -9.99
2020/01/17 16:48 CST    0.27   1.80   15  113   18  65.5  64.6 1021.1 15.7  1.011 -99.9 -99.99 -9.99
2020/01/17 16:54 CST    0.26   1.91   14  115   19  65.5  64.6 1021.0 15.7  1.011 -99.9 -99.99 -9.99
2020/01/17 17:00 CST    0.26   1.85   15  113   19  65.3  64.6 1020.9 15.7  1.011 -99.9 -99.99 -9.99
2020/01/17 17:06 CST    0.25   1.75   16  112   19  65.3  64.6 1020.9 15.8  1.011 -99.9 -99.99 -9.99
2020/01/17 17:12 CST    0.25   1.78   15  111   19  65.3  64.6 1021.0 15.8  1.011 -99.9 -99.99 -9.99
2020/01/17 17:18 CST    0.24   1.79   15  112   20  65.1  64.6 1021.0 15.8  1.012 -99.9 -99.99 -9.99
2020/01/17 17:24 CST    0.23   1.83   12  112   17  65.3  64.6 1021.0 15.8  1.012 -99.9 -99.99 -9.99
2020/01/17 17:30 CST    0.23   1.81   15  109   17  65.3  64.6 1021.0 15.8  1.012 -99.9 -99.99 -9.99
2020/01/17 17:36 CST    0.22   1.76   16  110   19  65.1  64.6 1021.0 15.8  1.012 -99.9 -99.99 -9.99
2020/01/17 17:42 CST    0.22   1.76   16  109   18  65.1  64.6 1021.1 15.8  1.011 -99.9 -99.99 -9.99
2020/01/17 17:48 CST    0.21   1.75   14  109   17  65.1  64.6 1021.1 15.8  1.011 -99.9 -99.99 -9.99
2020/01/17 17:54 CST    0.21   1.77   14  110   17  65.1  64.6 1021.3 15.7  1.011 -99.9 -99.99 -9.99
2020/01/17 18:00 CST    0.20   1.80   14  111   18  65.3  64.6 1021.4 15.7  1.011 -99.9 -99.99 -9.99
2020/01/17 18:06 CST    0.19   1.79   13  115   18  65.1  64.6 1021.4 15.7  1.011 -99.9 -99.99 -9.99
2020/01/17 18:12 CST    0.19   1.82   15  115   19  65.1  64.6 1021.3 15.7  1.011 -99.9 -99.99 -9.99
2020/01/17 18:18 CST    0.18   1.77   14  114   18  65.1  64.6 1021.4 15.7  1.011 -99.9 -99.99 -9.99
2020/01/17 18:24 CST    0.17   1.77   13  118   17  65.1  64.6 1021.4 15.7  1.011 -99.9 -99.99 -9.99
2020/01/17 18:30 CST    0.17   1.80   14  116   18  65.3  64.6 1021.3 15.7  1.011 -99.9 -99.99 -9.99
2020/01/17 18:36 CST    0.16   1.92   15  115   18  65.3  64.6 1021.3 15.7  1.011 -99.9 -99.99 -9.99
2020/01/17 18:42 CST    0.15   1.82   14  117   17  65.1  64.6 1021.4 15.7  1.011 -99.9 -99.99 -9.99
2020/01/17 18:48 CST    0.15   1.80   15  117   18  65.3  64.6 1021.5 15.7  1.011 -99.9 -99.99 -9.99
2020/01/17 18:54 CST    0.14   1.77   13  119   19  65.1  64.8 1021.5 15.7  1.011 -99.9 -99.99 -9.99
2020/01/17 19:00 CST    0.13   1.77   12  121   17  65.1  64.8 1021.6 15.6  1.011 -99.9 -99.99 -9.99
2020/01/17 19:06 CST    0.12   1.77   12  118   16  65.1  64.8 1021.7 15.6  1.011 -99.9 -99.99 -9.99
2020/01/17 19:12 CST    0.12   1.76   15  114   19  64.9  64.8 1021.5 15.7  1.011 -99.9 -99.99 -9.99
2020/01/17 19:18 CST    0.11   1.72   11  114   17  64.9  64.6 1021.5 15.7  1.011 -99.9 -99.99 -9.99
2020/01/17 19:24 CST    0.10   1.73   14  118   19  64.9  64.6 1021.6 15.7  1.011 -99.9 -99.99 -9.99
2020/01/17 19:30 CST    0.10   1.72   13  114   16  64.9  64.6 1021.7 15.7  1.011 -99.9 -99.99 -9.99
2020/01/17 19:36 CST    0.09   1.70   12  116   15  64.9  64.8 1021.6 15.6  1.011 -99.9 -99.99 -9.99
2020/01/17 19:42 CST    0.09   1.76   10  116   15  64.9  64.8 1021.6 15.5  1.011 -99.9 -99.99 -9.99
2020/01/17 19:48 CST    0.08   1.77   11  117   14  64.9  64.8 1021.7 15.5  1.011 -99.9 -99.99 -9.99
2020/01/17 19:54 CST    0.07   1.67   11  116   14  64.9  64.8 1021.7 15.5  1.011 -99.9 -99.99 -9.99
2020/01/17 20:00 CST    0.07   1.66   11  116   14  65.1  64.8 1021.7 15.5  1.011 -99.9 -99.99 -9.99
2020/01/17 20:06 CST    0.07   1.61   10  117   14  65.1  64.8 1021.7 15.5  1.011 -99.9 -99.99 -9.99
2020/01/17 20:12 CST    0.06   1.78   12  116   14  65.1  64.8 1021.6 15.4  1.011 -99.9 -99.99 -9.99
2020/01/17 20:18 CST    0.06   1.66   11  114   14  65.1  64.8 1021.7 15.4  1.011 -99.9 -99.99 -9.99
2020/01/17 20:24 CST    0.06   1.59   11  116   13  65.1  64.8 1021.6 15.5  1.011 -99.9 -99.99 -9.99
2020/01/17 20:30 CST    0.06   1.56   11  117   14  65.1  64.9 1021.5 15.4  1.011 -99.9 -99.99 -9.99
2020/01/17 20:36 CST    0.06   1.68   12  119   15  65.1  64.9 1021.6 15.4  1.011 -99.9 -99.99 -9.99
2020/01/17 20:42 CST    0.06   1.67   11  119   14  65.1  64.9 1021.6 15.4  1.011 -99.9 -99.99 -9.99
2020/01/17 20:48 CST    0.06   1.60   11  119   14  65.1  64.9 1021.6 15.4  1.011 -99.9 -99.99 -9.99
2020/01/17 20:54 CST    0.06   1.62   11  117   15  65.1  64.9 1021.5 15.3  1.011 -99.9 -99.99 -9.99
2020/01/17 21:00 CST    0.07   1.65   11  115   14  65.3  64.9 1021.5 15.3  1.011 -99.9 -99.99 -9.99
2020/01/17 21:06 CST    0.07   1.66   11  115   15  65.3  64.9 1021.4 15.3  1.011 -99.9 -99.99 -9.99
2020/01/17 21:12 CST    0.08   1.78   12  115   15  65.3  64.9 1021.4 15.3  1.011 -99.9 -99.99 -9.99
2020/01/17 21:18 CST    0.08   1.69   12  117   14  65.3  64.9 1021.3 15.2  1.011 -99.9 -99.99 -9.99
2020/01/17 21:24 CST    0.09   1.73   12  115   15  65.3  64.9 1021.1 15.0  1.011 -99.9 -99.99 -9.99
2020/01/17 21:30 CST    0.09   1.73   11  116   15  65.1  64.9 1021.1 15.1  1.011 -99.9 -99.99 -9.99
2020/01/17 21:36 CST    0.10   1.81   11  116   14  65.1  64.9 1021.0 15.1  1.011 -99.9 -99.99 -9.99
2020/01/17 21:42 CST    0.10   1.77   11  118   16  65.1  64.9 1020.9 15.1  1.011 -99.9 -99.99 -9.99
2020/01/17 21:48 CST    0.11   1.78   12  119   16  65.1  64.9 1020.9 15.1  1.011 -99.9 -99.99 -9.99
2020/01/17 21:54 CST    0.12   1.82   11  119   14  65.1  64.9 1020.8 15.2  1.011 -99.9 -99.99 -9.99
2020/01/17 22:00 CST    0.12   1.77   11  118   14  65.1  64.9 1020.7 15.2  1.011 -99.9 -99.99 -9.99
2020/01/17 22:06 CST    0.13   1.87   12  116   15  65.1  64.9 1020.7 15.1  1.011 -99.9 -99.99 -9.99
2020/01/17 22:12 CST    0.14   1.68   11  117   15  65.3  64.9 1020.8 15.0  1.011 -99.9 -99.99 -9.99
2020/01/17 22:18 CST    0.14   1.83   11  118   14  65.3  64.9 1020.7 15.0  1.011 -99.9 -99.99 -9.99
2020/01/17 22:24 CST    0.15   1.73   11  119   15  65.5  64.9 1020.6 15.0  1.011 -99.9 -99.99 -9.99
2020/01/17 22:30 CST    0.16   1.89   11  120   14  65.5  64.9 1020.6 15.0  1.011 -99.9 -99.99 -9.99
2020/01/17 22:36 CST    0.16   1.80   12  122   15  65.5  64.9 1020.6 15.0  1.011 -99.9 -99.99 -9.99
2020/01/17 22:42 CST    0.17   1.90   11  121   16  65.5  64.9 1020.5 14.9  1.011 -99.9 -99.99 -9.99
2020/01/17 22:48 CST    0.18   1.82   11  122   15  65.5  64.9 1020.5 14.9  1.011 -99.9 -99.99 -9.99
2020/01/17 22:54 CST    0.18   2.00   11  123   14  65.7  64.9 1020.6 15.0  1.011 -99.9 -99.99 -9.99
2020/01/17 23:00 CST    0.19   1.82   10  124   14  65.7  64.9 1020.5 15.0  1.011 -99.9 -99.99 -9.99
2020/01/17 23:06 CST    0.20   1.82   10  123   15  65.7  64.9 1020.5 14.9  1.011 -99.9 -99.99 -9.99
2020/01/17 23:12 CST    0.20   1.83   12  120   15  65.7  64.9 1020.4 14.9  1.011 -99.9 -99.99 -9.99
2020/01/17 23:18 CST    0.21   1.93   13  124   16  65.7  64.9 1020.2 15.1  1.011 -99.9 -99.99 -9.99
2020/01/17 23:24 CST    0.22   1.94   13  129   16  65.7  64.9 1020.3 15.1  1.011 -99.9 -99.99 -9.99
2020/01/17 23:30 CST    0.22   2.00   12  132   16  65.8  64.9 1020.3 15.0  1.011 -99.9 -99.99 -9.99
2020/01/17 23:36 CST    0.23   2.01   11  135   16  65.8  64.9 1020.3 15.0  1.011 -99.9 -99.99 -9.99
2020/01/17 23:42 CST    0.24   1.89   11  136   13  65.8  64.9 1020.3 15.0  1.011 -99.9 -99.99 -9.99
2020/01/17 23:48 CST    0.24   1.94   10  140   13  65.8  64.9 1020.4 15.0  1.011 -99.9 -99.99 -9.99
2020/01/17 23:54 CST    0.25   1.93   10  139   14  65.8  64.9 1020.3 15.0  1.011 -99.9 -99.99 -9.99
2020/01/18 00:00 CST    0.25   2.01   10  140   13  65.8  64.9 1020.3 15.0  1.011 -99.9 -99.99 -9.99
2020/01/18 00:06 CST    0.26   2.07    9  142   12  65.8  64.9 1020.3 15.1  1.011 -99.9 -99.99 -9.99
2020/01/18 00:12 CST    0.27   1.99    6  148   11  65.8  64.9 1020.4 15.1  1.011 -99.9 -99.99 -9.99
2020/01/18 00:18 CST    0.27   1.95    7  150   10  65.8  64.9 1020.2 15.1  1.011 -99.9 -99.99 -9.99
2020/01/18 00:24 CST    0.28   2.01    7  150   11  65.7  64.9 1020.1 15.0  1.011 -99.9 -99.99 -9.99
2020/01/18 00:30 CST    0.28   2.01   11  142   14  65.8  64.9 1020.0 15.0  1.011 -99.9 -99.99 -9.99
2020/01/18 00:36 CST    0.29   2.06   11  142   14  65.5  64.9 1019.8 15.1  1.011 -99.9 -99.99 -9.99
2020/01/18 00:42 CST    0.29   2.01   11  136   14  65.7  64.9 1019.7 15.1  1.011 -99.9 -99.99 -9.99
2020/01/18 00:48 CST    0.29   2.01   10  138   15  65.7  64.9 1019.7 15.1  1.011 -99.9 -99.99 -9.99
2020/01/18 00:54 CST    0.30   2.07   11  141   14  65.7  64.9 1019.6 15.1  1.011 -99.9 -99.99 -9.99
2020/01/18 01:00 CST    0.30   2.12   11  141   14  65.7  64.9 1019.7 15.2  1.011 -99.9 -99.99 -9.99
2020/01/18 01:06 CST    0.30   2.03    8  147   13  65.7  64.9 1019.7 15.2  1.011 -99.9 -99.99 -9.99
2020/01/18 01:12 CST    0.30   2.09    8  155   11  65.7  64.9 1019.8 15.3  1.011 -99.9 -99.99 -9.99
2020/01/18 01:18 CST    0.30   2.07    4  211   11  65.5  64.9 1019.9 15.3  1.011 -99.9 -99.99 -9.99
2020/01/18 01:24 CST    0.31   2.09    7  166    9  65.3  64.8 1019.8 15.4  1.011 -99.9 -99.99 -9.99
2020/01/18 01:30 CST    0.31   2.07    6  150   10  65.5  64.8 1019.8 15.4  1.011 -99.9 -99.99 -9.99
2020/01/18 01:36 CST    0.31   2.08    7  153   11  65.3  64.8 1019.8 15.5  1.011 -99.9 -99.99 -9.99
2020/01/18 01:42 CST    0.30   2.11    8  153   10  65.3  64.8 1019.7 15.5  1.011 -99.9 -99.99 -9.99
2020/01/18 01:48 CST    0.30   2.11    8  156   10  65.5  64.8 1019.6 15.5  1.011 -99.9 -99.99 -9.99
2020/01/18 01:54 CST    0.30   2.08    9  159   12  65.5  64.8 1019.5 15.5  1.011 -99.9 -99.99 -9.99
2020/01/18 02:00 CST    0.30   2.09    7  162   12  65.5  64.8 1019.5 15.6  1.011 -99.9 -99.99 -9.99
2020/01/18 02:06 CST    0.30   2.11    5  185   10  65.7  64.8 1019.7 15.6  1.011 -99.9 -99.99 -9.99
2020/01/18 02:12 CST    0.29   2.12    7  155   11  65.3  64.8 1019.7 15.6  1.011 -99.9 -99.99 -9.99
2020/01/18 02:18 CST    0.29   2.10    7  162   10  65.3  64.8 1019.7 15.6  1.011 -99.9 -99.99 -9.99
2020/01/18 02:24 CST    0.28   2.09    6  166   10  65.3  64.8 1019.7 15.6  1.011 -99.9 -99.99 -9.99
2020/01/18 02:30 CST    0.28   2.10    8  162   10  65.5  64.8 1019.7 15.7  1.011 -99.9 -99.99 -9.99
2020/01/18 02:36 CST    0.27   2.11    7  166   10  65.3  64.8 1019.8 15.7  1.011 -99.9 -99.99 -9.99
2020/01/18 02:42 CST    0.27   2.06    6  163    9  65.3  64.8 1019.8 15.7  1.011 -99.9 -99.99 -9.99
2020/01/18 02:48 CST    0.26   2.01    7  162    9  65.5  64.8 1019.9 15.7  1.011 -99.9 -99.99 -9.99
2020/01/18 02:54 CST    0.25   2.00    6  161    8  65.3  64.8 1019.9 15.7  1.011 -99.9 -99.99 -9.99
2020/01/18 03:00 CST    0.24   1.99    5  156    8  65.3  64.8 1019.9 15.7  1.011 -99.9 -99.99 -9.99
2020/01/18 03:06 CST    0.24   1.95    4  151    7  65.3  64.8 1020.0 15.6  1.011 -99.9 -99.99 -9.99
2020/01/18 03:12 CST    0.23   1.91    4  162    6  65.3  64.8 1019.9 15.6  1.011 -99.9 -99.99 -9.99
2020/01/18 03:18 CST    0.22   1.90    4  166    6  65.5  64.8 1020.0 15.5  1.011 -99.9 -99.99 -9.99
2020/01/18 03:24 CST    0.21   1.90    3  163    4  65.5  64.8 1020.1 15.5  1.011 -99.9 -99.99 -9.99
2020/01/18 03:30 CST    0.20   1.89    2  177    4  65.7  64.8 1020.2 15.4  1.011 -99.9 -99.99 -9.99
2020/01/18 03:36 CST    0.19   1.87    2  177    3  65.7  64.9 1020.2 15.3  1.011 -99.9 -99.99 -9.99
2020/01/18 03:42 CST    0.17   1.84    2  188    3  65.7  65.1 1020.2 14.8  1.011 -99.9 -99.99 -9.99
2020/01/18 03:48 CST    0.16   1.84    2  177    3  65.7  65.1 1020.3 14.7  1.011 -99.9 -99.99 -9.99
2020/01/18 03:54 CST    0.15   1.82    3  145    4  65.7  65.1 1020.2 14.6  1.011 -99.9 -99.99 -9.99
2020/01/18 04:00 CST    0.14   1.82    4  145    5  65.7  65.3 1020.1 14.4  1.010 -99.9 -99.99 -9.99
2020/01/18 04:06 CST    0.12   1.81    4  161    6  65.8  65.5 1020.0 14.2  1.010 -99.9 -99.99 -9.99
2020/01/18 04:12 CST    0.11   1.78    4  151    5  65.7  65.5 1019.9 14.1  1.010 -99.9 -99.99 -9.99
2020/01/18 04:18 CST    0.09   1.76    4  154    5  65.8  65.5 1019.8 14.1  1.010 -99.9 -99.99 -9.99
2020/01/18 04:24 CST    0.08   1.74    4  156    5  65.7  65.7 1019.8 14.0  1.010 -99.9 -99.99 -9.99
2020/01/18 04:30 CST    0.06   1.71    4  156    6  66.0  65.7 1019.8 14.1  1.010 -99.9 -99.99 -9.99
2020/01/18 04:36 CST    0.05   1.71    3  154    5  66.4  65.7 1019.8 13.3  1.010 -99.9 -99.99 -9.99
2020/01/18 04:42 CST    0.03   1.69    2  152    3  66.4  65.7 1019.9 13.4  1.010 -99.9 -99.99 -9.99
2020/01/18 04:48 CST    0.02   1.66    2  125    3  66.0  65.7 1019.9 13.5  1.010 -99.9 -99.99 -9.99
2020/01/18 04:54 CST   -0.00   1.64    2  130    3  65.8  65.8 1019.9 13.2  1.009 -99.9 -99.99 -9.99
2020/01/18 05:00 CST   -0.02   1.62    3  127    4  65.7  65.8 1019.9 13.3  1.009 -99.9 -99.99 -9.99
2020/01/18 05:06 CST   -0.03   1.61    1  182    3  65.7  65.8 1020.1 13.0  1.009 -99.9 -99.99 -9.99
2020/01/18 05:12 CST   -0.05   1.59    0  184    1  65.8  65.8 1020.2 12.6  1.009 -99.9 -99.99 -9.99
2020/01/18 05:18 CST   -0.07   1.56    2  147    2  65.8  66.0 1020.2 12.8  1.009 -99.9 -99.99 -9.99
2020/01/18 05:24 CST   -0.08   1.53    2  145    3  65.7  66.0 1020.3 12.8  1.009 -99.9 -99.99 -9.99
2020/01/18 05:30 CST   -0.10   1.52    2  157    3  65.7  66.0 1020.3 12.9  1.009 -99.9 -99.99 -9.99
2020/01/18 05:36 CST   -0.11   1.49    3  150    4  65.8  66.0 1020.3 12.9  1.009 -99.9 -99.99 -9.99
2020/01/18 05:42 CST   -0.13   1.47    3  160    4  65.8  66.0 1020.3 13.0  1.009 -99.9 -99.99 -9.99
2020/01/18 05:48 CST   -0.15   1.43    3  168    4  65.8  66.0 1020.4 13.1  1.009 -99.9 -99.99 -9.99
2020/01/18 05:54 CST   -0.16   1.41    4  158    4  65.8  66.0 1020.4 13.3  1.009 -99.9 -99.99 -9.99
2020/01/18 06:00 CST   -0.18   1.39    4  155    4  65.7  66.0 1020.3 13.3  1.009 -99.9 -99.99 -9.99
2020/01/18 06:06 CST   -0.19   1.36    3  155    4  65.5  66.0 1020.2 13.2  1.009 -99.9 -99.99 -9.99
2020/01/18 06:12 CST   -0.21   1.33    4  159    5  65.7  66.0 1020.3 13.0  1.009 -99.9 -99.99 -9.99
2020/01/18 06:18 CST   -0.23   1.31    2  158    5  65.7  66.0 1020.2 12.9  1.009 -99.9 -99.99 -9.99
2020/01/18 06:24 CST   -0.24   1.29    4  167    6  66.0  66.2 1020.2 12.7  1.009 -99.9 -99.99 -9.99
2020/01/18 06:30 CST   -0.26   1.27    4  159    6  66.2  66.2 1020.2 12.6  1.009 -99.9 -99.99 -9.99
2020/01/18 06:36 CST   -0.27   1.25    4  152    7  66.6  66.4 1020.2 12.5  1.009 -99.9 -99.99 -9.99
2020/01/18 06:42 CST   -0.29   1.23    5  157    7  66.7  66.4 1019.9 12.5  1.009 -99.9 -99.99 -9.99
2020/01/18 06:48 CST   -0.30   1.21    6  150    8  66.6  66.4 1019.8 12.4  1.009 -99.9 -99.99 -9.99
2020/01/18 06:54 CST   -0.32   1.20    5  152    8  66.9  66.4 1019.7 12.3  1.009 -99.9 -99.99 -9.99
2020/01/18 07:00 CST   -0.33   1.18    5  144    7  66.6  66.4 1019.7 12.4  1.009 -99.9 -99.99 -9.99
2020/01/18 07:06 CST   -0.35   1.17    6  145    7  66.6  66.4 1019.9 12.4  1.009 -99.9 -99.99 -9.99
2020/01/18 07:12 CST   -0.36   1.15    5  136    7  66.6  66.4 1020.0 12.4  1.009 -99.9 -99.99 -9.99
2020/01/18 07:18 CST   -0.38   1.13    4  123    6  66.2  66.4 1020.0 12.5  1.009 -99.9 -99.99 -9.99
2020/01/18 07:24 CST   -0.39   1.11    4  128    5  66.2  66.4 1020.2 12.5  1.009 -99.9 -99.99 -9.99
2020/01/18 07:30 CST   -0.40   1.11    5  104    5  65.7  66.4 1020.3 12.5  1.009 -99.9 -99.99 -9.99
2020/01/18 07:36 CST   -0.42   1.10    4  104    5  65.7  66.4 1020.4 12.6  1.009 -99.9 -99.99 -9.99
2020/01/18 07:42 CST   -0.43   1.09    3  122    4  65.7  66.4 1020.5 12.6  1.009 -99.9 -99.99 -9.99
2020/01/18 07:48 CST   -0.44   1.08    3  134    4  65.7  66.4 1020.5 12.7  1.009 -99.9 -99.99 -9.99
2020/01/18 07:54 CST   -0.46   1.07    3  135    4  65.7  66.2 1020.7 12.7  1.009 -99.9 -99.99 -9.99
2020/01/18 08:00 CST   -0.47   1.07    2  148    4  65.7  66.2 1020.9 12.8  1.009 -99.9 -99.99 -9.99
2020/01/18 08:06 CST   -0.48   1.05    0  144    1  65.7  66.2 1021.0 12.9  1.009 -99.9 -99.99 -9.99
2020/01/18 08:12 CST   -0.49   1.04    0  122    1  65.7  66.2 1021.1 12.8  1.009 -99.9 -99.99 -9.99
2020/01/18 08:18 CST   -0.49   1.03    1  132    3  65.8  66.2 1021.2 12.6  1.009 -99.9 -99.99 -9.99
2020/01/18 08:24 CST   -0.50   1.03    2  127    3  65.8  66.2 1021.3 12.5  1.009 -99.9 -99.99 -9.99
2020/01/18 08:30 CST   -0.51   1.02    2  140    3  65.8  66.2 1021.3 12.4  1.009 -99.9 -99.99 -9.99
2020/01/18 08:36 CST   -0.51   1.01    2  128    3  65.7  66.2 1021.3 12.4  1.009 -99.9 -99.99 -9.99
2020/01/18 08:42 CST   -0.52   1.00    2  127    3  65.7  66.2 1021.3 12.4  1.009 -99.9 -99.99 -9.99
2020/01/18 08:48 CST   -0.52   0.99    2  105    2  65.8  66.2 1021.4 12.5  1.009 -99.9 -99.99 -9.99
2020/01/18 08:54 CST   -0.52   0.99    2   68    3  66.0  66.2 1021.5 12.6  1.009 -99.9 -99.99 -9.99
2020/01/18 09:00 CST   -0.52   0.97    3   64    3  66.2  66.2 1021.7 12.6  1.009 -99.9 -99.99 -9.99
2020/01/18 09:06 CST   -0.52   0.96    3   69    4  66.0  66.2 1021.8 12.6  1.009 -99.9 -99.99 -9.99
2020/01/18 09:12 CST   -0.52   0.95    3   78    4  66.0  66.2 1021.8 12.7  1.009 -99.9 -99.99 -9.99
2020/01/18 09:18 CST   -0.52   0.94    4   78    4  66.0  66.2 1021.9 12.8  1.009 -99.9 -99.99 -9.99
2020/01/18 09:24 CST   -0.52   0.94    3   75    4  66.0  65.8 1022.0 12.9  1.009 -99.9 -99.99 -9.99
2020/01/18 09:30 CST   -0.51   0.93    4   89    4  66.0  65.7 1022.0 13.1  1.009 -99.9 -99.99 -9.99
2020/01/18 09:36 CST   -0.51   0.92    3   87    4  66.2  65.8 1021.9 13.0  1.009 -99.9 -99.99 -9.99
2020/01/18 09:42 CST   -0.50   0.90    2  100    4  66.4  65.8 1022.0 13.0  1.009 -99.9 -99.99 -9.99
2020/01/18 09:48 CST   -0.49   0.90    4   97    4  66.6  65.8 1022.0 13.1  1.009 -99.9 -99.99 -9.99
2020/01/18 09:54 CST   -0.48   0.90    2   98    4  66.7  65.8 1022.1 13.1  1.009 -99.9 -99.99 -9.99
2020/01/18 10:00 CST   -0.47   0.90    2  107    3  66.9  65.8 1022.1 13.1  1.009 -99.9 -99.99 -9.99
2020/01/18 10:06 CST   -0.46   0.90    2  112    3  67.1  65.7 1022.1 13.1  1.009 -99.9 -99.99 -9.99
2020/01/18 10:12 CST   -0.45   0.89    3  112    3  67.3  65.7 1022.0 13.1  1.009 -99.9 -99.99 -9.99
2020/01/18 10:18 CST   -0.44   0.93    2  114    3  67.6  65.7 1022.0 13.0  1.009 -99.9 -99.99 -9.99
2020/01/18 10:24 CST   -0.43   0.97    2  106    2  67.8  65.8 1022.0 13.0  1.009 -99.9 -99.99 -9.99
2020/01/18 10:30 CST   -0.42   0.93    2  123    2  68.4  65.8 1022.0 13.1  1.009 -99.9 -99.99 -9.99
2020/01/18 10:36 CST   -0.41   0.90    1  139    2  68.7  65.7 1022.0 13.2  1.009 -99.9 -99.99 -9.99
2020/01/18 10:42 CST   -0.39   0.87    1  102    2  68.5  65.7 1022.0 13.4  1.010 -99.9 -99.99 -9.99
2020/01/18 10:48 CST   -0.38   0.92    2  114    2  68.7  65.5 1022.0 13.5  1.010 -99.9 -99.99 -9.99
2020/01/18 10:54 CST   -0.37   0.91    3  108    3  68.7  65.5 1021.9 13.5  1.010 -99.9 -99.99 -9.99
2020/01/18 11:00 CST   -0.35   0.93    3  129    3  68.9  65.5 1021.9 13.5  1.010 -99.9 -99.99 -9.99
2020/01/18 11:06 CST   -0.34   0.92    3  138    4  69.1  65.5 1021.9 13.5  1.010 -99.9 -99.99 -9.99
2020/01/18 11:12 CST   -0.32   0.92    4  144    4  69.1  65.7 1021.9 13.4  1.010 -99.9 -99.99 -9.99
2020/01/18 11:18 CST   -0.31   0.96    3  146    5  69.1  65.7 1021.9 13.3  1.010 -99.9 -99.99 -9.99
2020/01/18 11:24 CST   -0.29   0.98    4  154    5  69.3  65.7 1021.7 13.5  1.010 -99.9 -99.99 -9.99
2020/01/18 11:30 CST   -0.28   0.94    7  160    8  69.1  65.5 1021.7 13.5  1.010 -99.9 -99.99 -9.99
2020/01/18 11:36 CST   -0.26   1.01    6  168    8  69.1  65.5 1021.5 13.8  1.010 -99.9 -99.99 -9.99
2020/01/18 11:42 CST   -0.24   1.02    6  165    8  69.3  65.3 1021.4 14.0  1.010 -99.9 -99.99 -9.99
2020/01/18 11:48 CST   -0.23   1.08    4  176    8  69.4  65.3 1021.5 14.0  1.010 -99.9 -99.99 -9.99
2020/01/18 11:54 CST   -0.21   1.11    4  165    5  69.3  65.3 1021.4 14.0  1.010 -99.9 -99.99 -9.99
2020/01/18 12:00 CST   -0.19   1.11    4  164    6  69.3  65.3 1021.3 14.0  1.010 -99.9 -99.99 -9.99
2020/01/18 12:06 CST   -0.17   0.97    3  172    5  69.4  65.3 1021.2 13.9  1.010 -99.9 -99.99 -9.99
2020/01/18 12:12 CST   -0.15   1.01    3  178    4  69.3  65.3 1021.1 14.0  1.010 -99.9 -99.99 -9.99
2020/01/18 12:18 CST   -0.13   0.97    4  161    4  68.9  65.3 1020.9 14.0  1.010 -99.9 -99.99 -9.99
2020/01/18 12:24 CST   -0.12   1.13    2  169    5  68.7  65.3 1020.7 14.0  1.010 -99.9 -99.99 -9.99
2020/01/18 12:30 CST   -0.10   1.11    2  160    3  69.1  65.3 1020.5 14.0  1.010 -99.9 -99.99 -9.99
2020/01/18 12:36 CST   -0.08   1.00    2  157    3  69.3  65.3 1020.4 14.1  1.010 -99.9 -99.99 -9.99
2020/01/18 12:42 CST   -0.06   1.13    2  119    2  68.5  65.3 1020.2 14.3  1.010 -99.9 -99.99 -9.99
2020/01/18 12:48 CST   -0.04   1.13    3  105    3  68.4  65.1 1020.0 14.4  1.010 -99.9 -99.99 -9.99
2020/01/18 12:54 CST   -0.02   1.19    3  107    4  68.5  65.1 1019.9 14.5  1.010 -99.9 -99.99 -9.99
2020/01/18 13:00 CST    0.01   1.22    2   96    3  68.9  64.9 1020.0 14.6  1.011 -99.9 -99.99 -9.99
2020/01/18 13:06 CST    0.03   1.20    1  101    2  68.2  64.9 1019.9 14.6  1.011 -99.9 -99.99 -9.99
2020/01/18 13:12 CST    0.05   1.11    1  117    2  68.4  64.9 1019.7 14.6  1.011 -99.9 -99.99 -9.99
2020/01/18 13:18 CST    0.07   1.21    3  120    3  69.1  64.9 1019.6 14.6  1.011 -99.9 -99.99 -9.99
2020/01/18 13:24 CST    0.09   1.29    2  133    2  69.1  64.9 1019.6 14.6  1.011 -99.9 -99.99 -9.99
2020/01/18 13:30 CST    0.10   1.38    0  282    2  68.7  64.9 1019.6 14.7  1.011 -99.9 -99.99 -9.99
2020/01/18 13:36 CST    0.12   1.32    3   14    3  68.4  64.9 1019.6 14.6  1.011 -99.9 -99.99 -9.99
2020/01/18 13:42 CST    0.14   1.22    3   22    4  68.2  65.1 1019.5 14.5  1.010 -99.9 -99.99 -9.99
2020/01/18 13:48 CST    0.16   1.16    2   36    3  68.4  65.1 1019.5 14.5  1.010 -99.9 -99.99 -9.99
2020/01/18 13:54 CST    0.18   1.34    3   70    3  68.4  65.1 1019.4 14.5  1.010 -99.9 -99.99 -9.99
2020/01/18 14:00 CST    0.20   1.30    2   42    3  68.5  65.1 1019.6 14.5  1.010 -99.9 -99.99 -9.99
2020/01/18 14:06 CST    0.21   1.32    4  351    6  68.2  65.3 1019.7 14.3  1.010 -99.9 -99.99 -9.99
2020/01/18 14:12 CST    0.23   1.36    9  320   12  67.3  65.5 1019.8 14.1  1.010 -99.9 -99.99 -9.99
2020/01/18 14:18 CST    0.25   1.38   10  290   13  66.0  65.5 1019.8 14.1  1.010 -99.9 -99.99 -9.99
2020/01/18 14:24 CST    0.26   1.40    7  311   12  65.5  65.3 1019.7 14.2  1.010 -99.9 -99.99 -9.99
2020/01/18 14:30 CST    0.28   1.46    6  310    9  65.5  65.3 1019.5 14.2  1.010 -99.9 -99.99 -9.99
2020/01/18 14:36 CST    0.29   1.48    4  281    5  65.5  65.3 1019.5 14.1  1.010 -99.9 -99.99 -9.99
2020/01/18 14:42 CST    0.31   1.44    6  280    7  65.8  65.5 1019.5 14.1  1.010 -99.9 -99.99 -9.99
2020/01/18 14:48 CST    0.32   1.52    3  276    7  65.8  65.3 1019.4 14.3  1.010 -99.9 -99.99 -9.99
2020/01/18 14:54 CST    0.33   1.53    3  239    4  66.0  65.3 1019.5 14.3  1.010 -99.9 -99.99 -9.99
2020/01/18 15:00 CST    0.35   1.55    2  256    4  66.4  65.3 1019.4 14.3  1.010 -99.9 -99.99 -9.99
2020/01/18 15:06 CST    0.36   1.47    2  208    2  66.6  65.3 1019.2 14.2  1.010 -99.9 -99.99 -9.99
2020/01/18 15:12 CST    0.37   1.53    1  209    2  66.7  65.3 1019.2 14.2  1.010 -99.9 -99.99 -9.99
2020/01/18 15:18 CST    0.38   1.54    1  209    3  66.9  65.3 1019.4 14.3  1.010 -99.9 -99.99 -9.99
2020/01/18 15:24 CST    0.39   1.63    3  214    4  67.1  65.3 1019.5 14.4  1.010 -99.9 -99.99 -9.99
2020/01/18 15:30 CST    0.40   1.66    3  165    3  66.9  65.3 1019.6 14.3  1.010 -99.9 -99.99 -9.99
2020/01/18 15:36 CST    0.41   1.55    3  185    4  66.7  65.3 1019.8 14.3  1.010 -99.9 -99.99 -9.99
2020/01/18 15:42 CST    0.42   1.61    3  201    4  66.9  65.3 1019.9 14.3  1.010 -99.9 -99.99 -9.99
2020/01/18 15:48 CST    0.43   1.69    2  202    4  66.9  65.3 1019.9 14.3  1.010 -99.9 -99.99 -9.99
2020/01/18 15:54 CST    0.44   1.70    3  190    4  66.7  65.3 1020.0 14.3  1.010 -99.9 -99.99 -9.99
2020/01/18 16:00 CST    0.44   1.60    3  193    4  66.7  65.3 1020.3 14.3  1.010 -99.9 -99.99 -9.99
2020/01/18 16:06 CST    0.45   1.53    4  190    5  66.6  65.3 1020.2 14.2  1.010 -99.9 -99.99 -9.99
2020/01/18 16:12 CST    0.46   1.61    3  196    5  66.7  65.3 1020.3 14.3  1.010 -99.9 -99.99 -9.99
2020/01/18 16:18 CST    0.46   1.75    2  183    3  66.7  65.3 1020.3 14.4  1.010 -99.9 -99.99 -9.99
2020/01/18 16:24 CST    0.47   1.71    4  145    5  66.6  65.3 1020.2 14.3  1.010 -99.9 -99.99 -9.99
2020/01/18 16:30 CST    0.47   1.59    5  152    8  66.4  65.3 1020.2 14.3  1.010 -99.9 -99.99 -9.99
2020/01/18 16:36 CST    0.48   1.75    4  172    5  66.4  65.3 1020.1 14.3  1.010 -99.9 -99.99 -9.99
2020/01/18 16:42 CST    0.48   1.73    4  219    5  66.6  65.3 1020.3 14.3  1.010 -99.9 -99.99 -9.99
2020/01/18 16:48 CST    0.48   1.74    4  167    6  66.6  65.3 1020.3 14.3  1.010 -99.9 -99.99 -9.99
2020/01/18 16:54 CST    0.48   1.81    4  193    5  66.4  65.3 1020.5 14.3  1.010 -99.9 -99.99 -9.99
2020/01/18 17:00 CST    0.49   1.79    3  166    5  66.2  65.3 1020.6 14.3  1.010 -99.9 -99.99 -9.99
2020/01/18 17:06 CST    0.49   1.86    5  303    8  66.4  65.3 1020.7 14.3  1.010 -99.9 -99.99 -9.99
2020/01/18 17:12 CST    0.49   1.82   10   17   13  66.6  65.3 1020.7 14.3  1.010 -99.9 -99.99 -9.99
2020/01/18 17:18 CST    0.49   1.79   10    8   11  66.4  65.3 1020.9 14.3  1.010 -99.9 -99.99 -9.99
2020/01/18 17:24 CST    0.49   1.74    9   24   13  66.2  65.3 1020.9 14.2  1.010 -99.9 -99.99 -9.99
2020/01/18 17:30 CST    0.49   1.83    9    4   11  66.2  65.3 1021.0 14.2  1.010 -99.9 -99.99 -9.99
2020/01/18 17:36 CST    0.49   1.76    9    5   11  66.0  65.5 1021.0 14.2  1.010 -99.9 -99.99 -9.99
2020/01/18 17:42 CST    0.49   1.66    8    2   10  66.0  65.5 1020.8 14.2  1.010 -99.9 -99.99 -9.99
2020/01/18 17:48 CST    0.49   1.73    8    6   11  65.8  65.5 1020.8 14.1  1.010 -99.9 -99.99 -9.99
2020/01/18 17:54 CST    0.49   1.77    9    6   12  65.8  65.5 1020.9 14.1  1.010 -99.9 -99.99 -9.99
2020/01/18 18:00 CST    0.48   1.79   10    5   13  66.0  65.5 1021.0 14.1  1.010 -99.9 -99.99 -9.99
2020/01/18 18:06 CST    0.48   1.73    8    5   12  66.2  65.5 1021.3 14.1  1.010 -99.9 -99.99 -9.99
2020/01/18 18:12 CST    0.48   1.69    8    3   10  66.2  65.5 1021.4 14.1  1.010 -99.9 -99.99 -9.99
2020/01/18 18:18 CST    0.48   1.72   10  356   13  66.4  65.5 1021.6 14.1  1.010 -99.9 -99.99 -9.99
2020/01/18 18:24 CST    0.47   1.70   12  359   15  66.6  65.5 1021.7 14.1  1.010 -99.9 -99.99 -9.99
2020/01/18 18:30 CST    0.47   1.66   16  352   19  66.6  65.5 1021.7 14.0  1.010 -99.9 -99.99 -9.99
2020/01/18 18:36 CST    0.47   1.63   15  354   19  66.4  65.7 1021.7 13.9  1.010 -99.9 -99.99 -9.99
2020/01/18 18:42 CST    0.46   1.71   15  352   23  66.2  65.7 1021.9 13.8  1.010 -99.9 -99.99 -9.99
2020/01/18 18:48 CST    0.46   1.66   16  352   19  66.0  65.7 1022.2 13.7  1.010 -99.9 -99.99 -9.99
2020/01/18 18:54 CST    0.45   1.60   13  356   17  65.8  65.7 1022.3 13.7  1.010 -99.9 -99.99 -9.99
2020/01/18 19:00 CST    0.45   1.56   12    2   16  65.8  65.7 1022.5 13.7  1.010 -99.9 -99.99 -9.99
2020/01/18 19:06 CST    0.45   1.53   12  351   16  65.7  65.7 1022.7 13.7  1.010 -99.9 -99.99 -9.99
2020/01/18 19:12 CST    0.44   1.64   11  360   13  65.3  65.7 1022.6 13.7  1.010 -99.9 -99.99 -9.99
2020/01/18 19:18 CST    0.43   1.62   12    5   15  64.8  65.7 1022.8 13.7  1.010 -99.9 -99.99 -9.99
2020/01/18 19:24 CST    0.43   1.60    9    4   12  64.8  65.7 1022.8 13.6  1.010 -99.9 -99.99 -9.99
2020/01/18 19:30 CST    0.42   1.53    8    6   10  64.8  65.7 1022.9 13.6  1.010 -99.9 -99.99 -9.99
2020/01/18 19:36 CST    0.41   1.58    9  359   11  64.6  65.7 1023.0 13.6  1.010 -99.9 -99.99 -9.99
2020/01/18 19:42 CST    0.41   1.51    9   13   11  64.6  65.7 1022.8 13.6  1.010 -99.9 -99.99 -9.99
2020/01/18 19:48 CST    0.40   1.50   11    8   12  64.6  65.7 1023.0 13.6  1.010 -99.9 -99.99 -9.99
2020/01/18 19:54 CST    0.39   1.47    9    7   12  64.4  65.7 1022.9 13.6  1.010 -99.9 -99.99 -9.99
2020/01/18 20:00 CST    0.39   1.52    9  352   11  64.6  65.7 1023.2 13.5  1.010 -99.9 -99.99 -9.99
2020/01/18 20:06 CST    0.38   1.53    9  354   11  64.6  65.7 1023.2 13.5  1.010 -99.9 -99.99 -9.99
2020/01/18 20:12 CST    0.37   1.49   11  353   13  64.6  65.7 1023.2 13.5  1.010 -99.9 -99.99 -9.99
2020/01/18 20:18 CST    0.37   1.40   11  354   13  64.4  65.7 1023.0 13.4  1.010 -99.9 -99.99 -9.99
2020/01/18 20:24 CST    0.36   1.39   12  353   14  64.4  65.7 1023.1 13.3  1.009 -99.9 -99.99 -9.99
2020/01/18 20:30 CST    0.35   1.46   12  356   15  64.4  65.7 1023.1 13.2  1.009 -99.9 -99.99 -9.99
2020/01/18 20:36 CST    0.35   1.41   11  351   13  64.2  65.7 1023.1 13.2  1.009 -99.9 -99.99 -9.99
2020/01/18 20:42 CST    0.34   1.39   11  347   15  64.2  65.7 1023.2 13.2  1.009 -99.9 -99.99 -9.99
2020/01/18 20:48 CST    0.33   1.47   11  351   13  64.2  65.7 1023.4 13.1  1.009 -99.9 -99.99 -9.99
2020/01/18 20:54 CST    0.33   1.40   11  350   13  64.2  65.7 1023.5 13.1  1.009 -99.9 -99.99 -9.99
2020/01/18 21:00 CST    0.32   1.38    9  356   12  64.0  65.8 1023.7 13.0  1.009 -99.9 -99.99 -9.99
2020/01/18 21:06 CST    0.32   1.34    8  350   13  63.9  65.7 1023.8 13.0  1.009 -99.9 -99.99 -9.99
2020/01/18 21:12 CST    0.32   1.37    8  360   11  63.9  65.8 1023.9 12.9  1.009 -99.9 -99.99 -9.99
2020/01/18 21:18 CST    0.31   1.31    8    5   11  63.7  65.8 1024.0 12.9  1.009 -99.9 -99.99 -9.99
2020/01/18 21:24 CST    0.31   1.32    9    2   13  63.7  65.8 1024.1 12.9  1.009 -99.9 -99.99 -9.99
2020/01/18 21:30 CST    0.31   1.33    9  353   12  63.7  65.8 1024.1 12.9  1.009 -99.9 -99.99 -9.99
2020/01/18 21:36 CST    0.31   1.28    6  352   10  63.5  65.7 1024.2 12.9  1.009 -99.9 -99.99 -9.99
2020/01/18 21:42 CST    0.31   1.33    8  352   10  63.3  65.7 1024.3 12.9  1.009 -99.9 -99.99 -9.99
2020/01/18 21:48 CST    0.31   1.35    9  347   11  63.3  65.7 1024.4 13.0  1.009 -99.9 -99.99 -9.99
2020/01/18 21:54 CST    0.31   1.23   12  345   14  63.1  65.7 1024.3 13.0  1.009 -99.9 -99.99 -9.99
2020/01/18 22:00 CST    0.31   1.23   13  345   15  63.0  65.7 1024.4 13.3  1.009 -99.9 -99.99 -9.99
2020/01/18 22:06 CST    0.31   1.07   11  350   14  62.6  65.7 1024.5 13.2  1.009 -99.9 -99.99 -9.99
2020/01/18 22:12 CST    0.31   1.16   11  346   14  62.4  65.7 1024.7 13.2  1.009 -99.9 -99.99 -9.99
2020/01/18 22:18 CST    0.31 -99.99 -999 -999 -999 -99.9 -99.9 -999.9 -9.9 -9.999 -99.9 -99.99 -9.99
2020/01/18 22:24 CST    0.31 -99.99 -999 -999 -999 -99.9 -99.9 -999.9 -9.9 -9.999 -99.9 -99.99 -9.99